<?xml version="1.0" encoding="UTF-8" standalone="no" ?>
<gpx xmlns="http://www.topografix.com/GPX/1/1" xmlns:xsi="http://www.w3.org/2001/XMLSchema-instance" xsi:schemaLocation="http://www.topografix.com/GPX/1/1 http://www.topografix.com/GPX/1/1/gpx.xsd" version="1.1" creator="VisuGPX - https://www.visugpx.com">
  <metadata>
    <name>Chaillevete</name>
  </metadata>
  <trk>
    <name><![CDATA[randogps17-261]]></name>
    <trkseg>
      <trkpt lat="45.73152" lon="-1.06909">
        <ele>10.769531</ele>
        <time>2013-05-29T12:42:04Z</time>
      </trkpt>
      <trkpt lat="45.73149" lon="-1.06942">
        <ele>11.328125</ele>
        <time>2013-05-29T12:45:06Z</time>
      </trkpt>
      <trkpt lat="45.73132" lon="-1.06962">
        <ele>11.953125</ele>
        <time>2013-05-29T12:45:37Z</time>
      </trkpt>
      <trkpt lat="45.73124" lon="-1.0697">
        <ele>12.238281</ele>
        <time>2013-05-29T12:45:44Z</time>
      </trkpt>
      <trkpt lat="45.73114" lon="-1.06983">
        <ele>12.578125</ele>
        <time>2013-05-29T12:46:02Z</time>
      </trkpt>
      <trkpt lat="45.73104" lon="-1.06997">
        <ele>12.933594</ele>
        <time>2013-05-29T12:46:14Z</time>
      </trkpt>
      <trkpt lat="45.73094" lon="-1.07011">
        <ele>13.414062</ele>
        <time>2013-05-29T12:46:26Z</time>
      </trkpt>
      <trkpt lat="45.73083" lon="-1.07024">
        <ele>14.125</ele>
        <time>2013-05-29T12:46:39Z</time>
      </trkpt>
      <trkpt lat="45.73075" lon="-1.07036">
        <ele>14.832031</ele>
        <time>2013-05-29T12:46:50Z</time>
      </trkpt>
      <trkpt lat="45.73067" lon="-1.07048">
        <ele>15.605469</ele>
        <time>2013-05-29T12:47:00Z</time>
      </trkpt>
      <trkpt lat="45.73062" lon="-1.0706">
        <ele>16.1875</ele>
        <time>2013-05-29T12:47:11Z</time>
      </trkpt>
      <trkpt lat="45.73054" lon="-1.07072">
        <ele>16.949219</ele>
        <time>2013-05-29T12:47:19Z</time>
      </trkpt>
      <trkpt lat="45.73048" lon="-1.07085">
        <ele>17.613281</ele>
        <time>2013-05-29T12:47:27Z</time>
      </trkpt>
      <trkpt lat="45.73041" lon="-1.07095">
        <ele>18.113281</ele>
        <time>2013-05-29T12:47:35Z</time>
      </trkpt>
      <trkpt lat="45.73034" lon="-1.07106">
        <ele>18.472656</ele>
        <time>2013-05-29T12:47:43Z</time>
      </trkpt>
      <trkpt lat="45.73027" lon="-1.07116">
        <ele>18.703125</ele>
        <time>2013-05-29T12:47:50Z</time>
      </trkpt>
      <trkpt lat="45.73021" lon="-1.07126">
        <ele>18.929688</ele>
        <time>2013-05-29T12:47:58Z</time>
      </trkpt>
      <trkpt lat="45.73014" lon="-1.07138">
        <ele>19.175781</ele>
        <time>2013-05-29T12:48:06Z</time>
      </trkpt>
      <trkpt lat="45.73007" lon="-1.07151">
        <ele>19.441406</ele>
        <time>2013-05-29T12:48:15Z</time>
      </trkpt>
      <trkpt lat="45.73001" lon="-1.07161">
        <ele>19.710938</ele>
        <time>2013-05-29T12:48:23Z</time>
      </trkpt>
      <trkpt lat="45.72996" lon="-1.07172">
        <ele>20.09375</ele>
        <time>2013-05-29T12:48:31Z</time>
      </trkpt>
      <trkpt lat="45.7299" lon="-1.07185">
        <ele>20.546875</ele>
        <time>2013-05-29T12:48:41Z</time>
      </trkpt>
      <trkpt lat="45.7298" lon="-1.072">
        <ele>21.019531</ele>
        <time>2013-05-29T12:48:51Z</time>
      </trkpt>
      <trkpt lat="45.72976" lon="-1.07211">
        <ele>21.269531</ele>
        <time>2013-05-29T12:49:00Z</time>
      </trkpt>
      <trkpt lat="45.72969" lon="-1.07221">
        <ele>21.402344</ele>
        <time>2013-05-29T12:49:07Z</time>
      </trkpt>
      <trkpt lat="45.72963" lon="-1.07235">
        <ele>21.503906</ele>
        <time>2013-05-29T12:49:16Z</time>
      </trkpt>
      <trkpt lat="45.72957" lon="-1.07244">
        <ele>21.617188</ele>
        <time>2013-05-29T12:49:24Z</time>
      </trkpt>
      <trkpt lat="45.72959" lon="-1.07259">
        <ele>21.585938</ele>
        <time>2013-05-29T12:49:32Z</time>
      </trkpt>
      <trkpt lat="45.72964" lon="-1.07272">
        <ele>21.488281</ele>
        <time>2013-05-29T12:49:40Z</time>
      </trkpt>
      <trkpt lat="45.72971" lon="-1.07283">
        <ele>21.304688</ele>
        <time>2013-05-29T12:49:48Z</time>
      </trkpt>
      <trkpt lat="45.72979" lon="-1.07293">
        <ele>20.988281</ele>
        <time>2013-05-29T12:49:56Z</time>
      </trkpt>
      <trkpt lat="45.72987" lon="-1.07302">
        <ele>20.574219</ele>
        <time>2013-05-29T12:50:04Z</time>
      </trkpt>
      <trkpt lat="45.72993" lon="-1.07315">
        <ele>20.046875</ele>
        <time>2013-05-29T12:50:12Z</time>
      </trkpt>
      <trkpt lat="45.72998" lon="-1.07327">
        <ele>19.660156</ele>
        <time>2013-05-29T12:50:19Z</time>
      </trkpt>
      <trkpt lat="45.73002" lon="-1.07341">
        <ele>19.488281</ele>
        <time>2013-05-29T12:50:27Z</time>
      </trkpt>
      <trkpt lat="45.73005" lon="-1.07356">
        <ele>19.40625</ele>
        <time>2013-05-29T12:50:36Z</time>
      </trkpt>
      <trkpt lat="45.73008" lon="-1.07369">
        <ele>19.367188</ele>
        <time>2013-05-29T12:50:44Z</time>
      </trkpt>
      <trkpt lat="45.7301" lon="-1.07383">
        <ele>19.34375</ele>
        <time>2013-05-29T12:50:52Z</time>
      </trkpt>
      <trkpt lat="45.73012" lon="-1.07398">
        <ele>19.269531</ele>
        <time>2013-05-29T12:51:01Z</time>
      </trkpt>
      <trkpt lat="45.73016" lon="-1.07413">
        <ele>19.101562</ele>
        <time>2013-05-29T12:51:10Z</time>
      </trkpt>
      <trkpt lat="45.73022" lon="-1.07427">
        <ele>18.917969</ele>
        <time>2013-05-29T12:51:19Z</time>
      </trkpt>
      <trkpt lat="45.73025" lon="-1.07444">
        <ele>19.140625</ele>
        <time>2013-05-29T12:51:29Z</time>
      </trkpt>
      <trkpt lat="45.73029" lon="-1.07462">
        <ele>19.640625</ele>
        <time>2013-05-29T12:51:39Z</time>
      </trkpt>
      <trkpt lat="45.73034" lon="-1.07475">
        <ele>19.925781</ele>
        <time>2013-05-29T12:51:49Z</time>
      </trkpt>
      <trkpt lat="45.73042" lon="-1.07488">
        <ele>20.109375</ele>
        <time>2013-05-29T12:51:57Z</time>
      </trkpt>
      <trkpt lat="45.73048" lon="-1.07499">
        <ele>20.308594</ele>
        <time>2013-05-29T12:52:05Z</time>
      </trkpt>
      <trkpt lat="45.73053" lon="-1.07515">
        <ele>20.613281</ele>
        <time>2013-05-29T12:52:14Z</time>
      </trkpt>
      <trkpt lat="45.73057" lon="-1.07529">
        <ele>20.910156</ele>
        <time>2013-05-29T12:52:22Z</time>
      </trkpt>
      <trkpt lat="45.73063" lon="-1.07542">
        <ele>21.011719</ele>
        <time>2013-05-29T12:52:32Z</time>
      </trkpt>
      <trkpt lat="45.7307" lon="-1.07553">
        <ele>20.871094</ele>
        <time>2013-05-29T12:52:41Z</time>
      </trkpt>
      <trkpt lat="45.73076" lon="-1.07564">
        <ele>20.789062</ele>
        <time>2013-05-29T12:52:49Z</time>
      </trkpt>
      <trkpt lat="45.73082" lon="-1.07576">
        <ele>20.632812</ele>
        <time>2013-05-29T12:52:57Z</time>
      </trkpt>
      <trkpt lat="45.73089" lon="-1.07589">
        <ele>20.519531</ele>
        <time>2013-05-29T12:53:05Z</time>
      </trkpt>
      <trkpt lat="45.73096" lon="-1.07598">
        <ele>20.300781</ele>
        <time>2013-05-29T12:53:13Z</time>
      </trkpt>
      <trkpt lat="45.73104" lon="-1.07607">
        <ele>20.070312</ele>
        <time>2013-05-29T12:53:21Z</time>
      </trkpt>
      <trkpt lat="45.7311" lon="-1.07619">
        <ele>20.074219</ele>
        <time>2013-05-29T12:53:29Z</time>
      </trkpt>
      <trkpt lat="45.73117" lon="-1.07631">
        <ele>20.027344</ele>
        <time>2013-05-29T12:53:37Z</time>
      </trkpt>
      <trkpt lat="45.73124" lon="-1.0764">
        <ele>19.9375</ele>
        <time>2013-05-29T12:53:45Z</time>
      </trkpt>
      <trkpt lat="45.73131" lon="-1.07649">
        <ele>19.835938</ele>
        <time>2013-05-29T12:53:53Z</time>
      </trkpt>
      <trkpt lat="45.73138" lon="-1.07659">
        <ele>19.785156</ele>
        <time>2013-05-29T12:54:01Z</time>
      </trkpt>
      <trkpt lat="45.73146" lon="-1.07669">
        <ele>19.871094</ele>
        <time>2013-05-29T12:54:09Z</time>
      </trkpt>
      <trkpt lat="45.73153" lon="-1.07678">
        <ele>19.957031</ele>
        <time>2013-05-29T12:54:16Z</time>
      </trkpt>
      <trkpt lat="45.73159" lon="-1.07686">
        <ele>20.050781</ele>
        <time>2013-05-29T12:54:23Z</time>
      </trkpt>
      <trkpt lat="45.73167" lon="-1.07694">
        <ele>20.203125</ele>
        <time>2013-05-29T12:54:32Z</time>
      </trkpt>
      <trkpt lat="45.73174" lon="-1.07703">
        <ele>20.378906</ele>
        <time>2013-05-29T12:54:41Z</time>
      </trkpt>
      <trkpt lat="45.73183" lon="-1.07712">
        <ele>20.554688</ele>
        <time>2013-05-29T12:54:49Z</time>
      </trkpt>
      <trkpt lat="45.73189" lon="-1.0772">
        <ele>21.046875</ele>
        <time>2013-05-29T12:54:57Z</time>
      </trkpt>
      <trkpt lat="45.73197" lon="-1.0773">
        <ele>21.574219</ele>
        <time>2013-05-29T12:55:06Z</time>
      </trkpt>
      <trkpt lat="45.73205" lon="-1.07741">
        <ele>22.265625</ele>
        <time>2013-05-29T12:55:16Z</time>
      </trkpt>
      <trkpt lat="45.73215" lon="-1.07753">
        <ele>22.921875</ele>
        <time>2013-05-29T12:55:24Z</time>
      </trkpt>
      <trkpt lat="45.73222" lon="-1.07763">
        <ele>23.535156</ele>
        <time>2013-05-29T12:55:33Z</time>
      </trkpt>
      <trkpt lat="45.73233" lon="-1.07777">
        <ele>24.042969</ele>
        <time>2013-05-29T12:55:45Z</time>
      </trkpt>
      <trkpt lat="45.73242" lon="-1.07784">
        <ele>24.25</ele>
        <time>2013-05-29T12:55:56Z</time>
      </trkpt>
      <trkpt lat="45.73254" lon="-1.07799">
        <ele>24.832031</ele>
        <time>2013-05-29T12:56:12Z</time>
      </trkpt>
      <trkpt lat="45.73253" lon="-1.07816">
        <ele>25.644531</ele>
        <time>2013-05-29T12:56:36Z</time>
      </trkpt>
      <trkpt lat="45.73254" lon="-1.07859">
        <ele>26.648438</ele>
        <time>2013-05-29T12:57:06Z</time>
      </trkpt>
      <trkpt lat="45.73258" lon="-1.07885">
        <ele>27.128906</ele>
        <time>2013-05-29T12:57:23Z</time>
      </trkpt>
      <trkpt lat="45.73258" lon="-1.07903">
        <ele>27.511719</ele>
        <time>2013-05-29T12:57:38Z</time>
      </trkpt>
      <trkpt lat="45.73258" lon="-1.0792">
        <ele>27.882812</ele>
        <time>2013-05-29T12:57:49Z</time>
      </trkpt>
      <trkpt lat="45.73257" lon="-1.07935">
        <ele>28.230469</ele>
        <time>2013-05-29T12:57:59Z</time>
      </trkpt>
      <trkpt lat="45.7326" lon="-1.07952">
        <ele>28.425781</ele>
        <time>2013-05-29T12:58:10Z</time>
      </trkpt>
      <trkpt lat="45.73264" lon="-1.07964">
        <ele>28.578125</ele>
        <time>2013-05-29T12:58:19Z</time>
      </trkpt>
      <trkpt lat="45.7327" lon="-1.07976">
        <ele>28.714844</ele>
        <time>2013-05-29T12:58:29Z</time>
      </trkpt>
      <trkpt lat="45.73278" lon="-1.07987">
        <ele>28.640625</ele>
        <time>2013-05-29T12:58:39Z</time>
      </trkpt>
      <trkpt lat="45.73287" lon="-1.07995">
        <ele>28.386719</ele>
        <time>2013-05-29T12:58:49Z</time>
      </trkpt>
      <trkpt lat="45.73297" lon="-1.08001">
        <ele>28.109375</ele>
        <time>2013-05-29T12:59:00Z</time>
      </trkpt>
      <trkpt lat="45.73306" lon="-1.0801">
        <ele>27.921875</ele>
        <time>2013-05-29T12:59:11Z</time>
      </trkpt>
      <trkpt lat="45.73316" lon="-1.0802">
        <ele>27.777344</ele>
        <time>2013-05-29T12:59:23Z</time>
      </trkpt>
      <trkpt lat="45.73324" lon="-1.08038">
        <ele>27.894531</ele>
        <time>2013-05-29T12:59:36Z</time>
      </trkpt>
      <trkpt lat="45.73324" lon="-1.08054">
        <ele>29.3</ele>
      </trkpt>
      <trkpt lat="45.73345" lon="-1.08046">
        <ele>28.6</ele>
      </trkpt>
      <trkpt lat="45.73371" lon="-1.08042">
        <ele>28</ele>
      </trkpt>
      <trkpt lat="45.73367" lon="-1.07938">
        <ele>26.6</ele>
      </trkpt>
      <trkpt lat="45.7336" lon="-1.07828">
        <ele>24.8</ele>
      </trkpt>
      <trkpt lat="45.73375" lon="-1.07824">
        <ele>24.7</ele>
      </trkpt>
      <trkpt lat="45.73409" lon="-1.07831">
        <ele>23.6</ele>
      </trkpt>
      <trkpt lat="45.73437" lon="-1.07844">
        <ele>22.6</ele>
      </trkpt>
      <trkpt lat="45.73461" lon="-1.07856">
        <ele>21.2</ele>
      </trkpt>
      <trkpt lat="45.73479" lon="-1.0787">
        <ele>20.5</ele>
      </trkpt>
      <trkpt lat="45.73481" lon="-1.07871">
        <ele>20.6</ele>
      </trkpt>
      <trkpt lat="45.73494" lon="-1.07889">
        <ele>21</ele>
      </trkpt>
      <trkpt lat="45.73508" lon="-1.07913">
        <ele>21.5</ele>
      </trkpt>
      <trkpt lat="45.73518" lon="-1.07919">
        <ele>22.2</ele>
      </trkpt>
      <trkpt lat="45.73552" lon="-1.07929">
        <ele>22.9</ele>
      </trkpt>
      <trkpt lat="45.73572" lon="-1.07937">
        <ele>24.1</ele>
      </trkpt>
      <trkpt lat="45.73604" lon="-1.07958">
        <ele>25.4</ele>
      </trkpt>
      <trkpt lat="45.73607" lon="-1.07964">
        <ele>25.6</ele>
      </trkpt>
      <trkpt lat="45.73629" lon="-1.08019">
        <ele>26</ele>
      </trkpt>
      <trkpt lat="45.73648" lon="-1.08066">
        <ele>26.8</ele>
      </trkpt>
      <trkpt lat="45.73664" lon="-1.08137">
        <ele>27</ele>
      </trkpt>
      <trkpt lat="45.73675" lon="-1.08178">
        <ele>26.7</ele>
      </trkpt>
      <trkpt lat="45.73684" lon="-1.08245">
        <ele>26</ele>
      </trkpt>
      <trkpt lat="45.73686" lon="-1.08272">
        <ele>26</ele>
      </trkpt>
      <trkpt lat="45.73686" lon="-1.08317">
        <ele>25</ele>
      </trkpt>
      <trkpt lat="45.7369" lon="-1.08342">
        <ele>24.9</ele>
      </trkpt>
      <trkpt lat="45.73705" lon="-1.08387">
        <ele>24</ele>
      </trkpt>
      <trkpt lat="45.73724" lon="-1.08432">
        <ele>22.9</ele>
      </trkpt>
      <trkpt lat="45.73743" lon="-1.08472">
        <ele>21.3</ele>
      </trkpt>
      <trkpt lat="45.73754" lon="-1.08495">
        <ele>20.9</ele>
      </trkpt>
      <trkpt lat="45.73811" lon="-1.08583">
        <ele>16.8</ele>
      </trkpt>
      <trkpt lat="45.73813" lon="-1.08581">
        <ele>16.289062</ele>
        <time>2013-05-29T14:01:37Z</time>
      </trkpt>
      <trkpt lat="45.73815" lon="-1.08578">
        <ele>16.230469</ele>
        <time>2013-05-29T14:03:38Z</time>
      </trkpt>
      <trkpt lat="45.73823" lon="-1.0857">
        <ele>16.027344</ele>
        <time>2013-05-29T14:04:05Z</time>
      </trkpt>
      <trkpt lat="45.73832" lon="-1.08561">
        <ele>15.734375</ele>
        <time>2013-05-29T14:04:14Z</time>
      </trkpt>
      <trkpt lat="45.7384" lon="-1.08553">
        <ele>15.449219</ele>
        <time>2013-05-29T14:04:23Z</time>
      </trkpt>
      <trkpt lat="45.73847" lon="-1.08545">
        <ele>15.175781</ele>
        <time>2013-05-29T14:04:32Z</time>
      </trkpt>
      <trkpt lat="45.73856" lon="-1.08536">
        <ele>15.019531</ele>
        <time>2013-05-29T14:04:40Z</time>
      </trkpt>
      <trkpt lat="45.73864" lon="-1.08528">
        <ele>14.878906</ele>
        <time>2013-05-29T14:04:48Z</time>
      </trkpt>
      <trkpt lat="45.73872" lon="-1.08521">
        <ele>14.726562</ele>
        <time>2013-05-29T14:04:57Z</time>
      </trkpt>
      <trkpt lat="45.73879" lon="-1.08512">
        <ele>14.609375</ele>
        <time>2013-05-29T14:05:05Z</time>
      </trkpt>
      <trkpt lat="45.73887" lon="-1.08505">
        <ele>14.5</ele>
        <time>2013-05-29T14:05:13Z</time>
      </trkpt>
      <trkpt lat="45.73895" lon="-1.08497">
        <ele>14.359375</ele>
        <time>2013-05-29T14:05:21Z</time>
      </trkpt>
      <trkpt lat="45.73902" lon="-1.08489">
        <ele>14.207031</ele>
        <time>2013-05-29T14:05:29Z</time>
      </trkpt>
      <trkpt lat="45.73909" lon="-1.08482">
        <ele>13.957031</ele>
        <time>2013-05-29T14:05:37Z</time>
      </trkpt>
      <trkpt lat="45.73917" lon="-1.08474">
        <ele>13.679688</ele>
        <time>2013-05-29T14:05:46Z</time>
      </trkpt>
      <trkpt lat="45.73924" lon="-1.08465">
        <ele>13.398438</ele>
        <time>2013-05-29T14:05:55Z</time>
      </trkpt>
      <trkpt lat="45.73932" lon="-1.08458">
        <ele>13.117188</ele>
        <time>2013-05-29T14:06:04Z</time>
      </trkpt>
      <trkpt lat="45.7394" lon="-1.0845">
        <ele>12.910156</ele>
        <time>2013-05-29T14:06:12Z</time>
      </trkpt>
      <trkpt lat="45.73948" lon="-1.08442">
        <ele>12.773438</ele>
        <time>2013-05-29T14:06:20Z</time>
      </trkpt>
      <trkpt lat="45.73955" lon="-1.08435">
        <ele>12.644531</ele>
        <time>2013-05-29T14:06:28Z</time>
      </trkpt>
      <trkpt lat="45.73963" lon="-1.08426">
        <ele>12.496094</ele>
        <time>2013-05-29T14:06:36Z</time>
      </trkpt>
      <trkpt lat="45.73971" lon="-1.08419">
        <ele>12.359375</ele>
        <time>2013-05-29T14:06:44Z</time>
      </trkpt>
      <trkpt lat="45.73978" lon="-1.08411">
        <ele>12.238281</ele>
        <time>2013-05-29T14:06:52Z</time>
      </trkpt>
      <trkpt lat="45.73985" lon="-1.08404">
        <ele>12.097656</ele>
        <time>2013-05-29T14:07:00Z</time>
      </trkpt>
      <trkpt lat="45.73993" lon="-1.08397">
        <ele>11.964844</ele>
        <time>2013-05-29T14:07:08Z</time>
      </trkpt>
      <trkpt lat="45.74" lon="-1.0839">
        <ele>11.832031</ele>
        <time>2013-05-29T14:07:16Z</time>
      </trkpt>
      <trkpt lat="45.74008" lon="-1.08383">
        <ele>11.695312</ele>
        <time>2013-05-29T14:07:25Z</time>
      </trkpt>
      <trkpt lat="45.74017" lon="-1.08374">
        <ele>11.488281</ele>
        <time>2013-05-29T14:07:33Z</time>
      </trkpt>
      <trkpt lat="45.74025" lon="-1.08366">
        <ele>11.304688</ele>
        <time>2013-05-29T14:07:41Z</time>
      </trkpt>
      <trkpt lat="45.74032" lon="-1.08358">
        <ele>11.164062</ele>
        <time>2013-05-29T14:07:49Z</time>
      </trkpt>
      <trkpt lat="45.7404" lon="-1.0835">
        <ele>11.050781</ele>
        <time>2013-05-29T14:07:57Z</time>
      </trkpt>
      <trkpt lat="45.74049" lon="-1.08341">
        <ele>10.925781</ele>
        <time>2013-05-29T14:08:05Z</time>
      </trkpt>
      <trkpt lat="45.74057" lon="-1.08333">
        <ele>10.648438</ele>
        <time>2013-05-29T14:08:13Z</time>
      </trkpt>
      <trkpt lat="45.74065" lon="-1.08325">
        <ele>10.335938</ele>
        <time>2013-05-29T14:08:21Z</time>
      </trkpt>
      <trkpt lat="45.74073" lon="-1.08317">
        <ele>9.992188</ele>
        <time>2013-05-29T14:08:28Z</time>
      </trkpt>
      <trkpt lat="45.7408" lon="-1.0831">
        <ele>9.691406</ele>
        <time>2013-05-29T14:08:35Z</time>
      </trkpt>
      <trkpt lat="45.74088" lon="-1.08301">
        <ele>9.414062</ele>
        <time>2013-05-29T14:08:42Z</time>
      </trkpt>
      <trkpt lat="45.74096" lon="-1.08294">
        <ele>9.164062</ele>
        <time>2013-05-29T14:08:50Z</time>
      </trkpt>
      <trkpt lat="45.74104" lon="-1.08284">
        <ele>8.964844</ele>
        <time>2013-05-29T14:08:58Z</time>
      </trkpt>
      <trkpt lat="45.74112" lon="-1.08276">
        <ele>8.8125</ele>
        <time>2013-05-29T14:09:06Z</time>
      </trkpt>
      <trkpt lat="45.7412" lon="-1.08268">
        <ele>8.671875</ele>
        <time>2013-05-29T14:09:14Z</time>
      </trkpt>
      <trkpt lat="45.74128" lon="-1.0826">
        <ele>8.53125</ele>
        <time>2013-05-29T14:09:22Z</time>
      </trkpt>
      <trkpt lat="45.74137" lon="-1.0825">
        <ele>8.375</ele>
        <time>2013-05-29T14:09:32Z</time>
      </trkpt>
      <trkpt lat="45.74145" lon="-1.08241">
        <ele>8.226562</ele>
        <time>2013-05-29T14:09:41Z</time>
      </trkpt>
      <trkpt lat="45.74181" lon="-1.08319">
        <ele>7.2</ele>
      </trkpt>
      <trkpt lat="45.74237" lon="-1.08441">
        <ele>6</ele>
      </trkpt>
      <trkpt lat="45.74268" lon="-1.08436">
        <ele>6</ele>
      </trkpt>
      <trkpt lat="45.74328" lon="-1.08416">
        <ele>5</ele>
      </trkpt>
      <trkpt lat="45.74377" lon="-1.08403">
        <ele>4.4</ele>
      </trkpt>
      <trkpt lat="45.74422" lon="-1.08388">
        <ele>4</ele>
      </trkpt>
      <trkpt lat="45.74444" lon="-1.0838">
        <ele>4</ele>
      </trkpt>
      <trkpt lat="45.74462" lon="-1.08369">
        <ele>3.8</ele>
      </trkpt>
      <trkpt lat="45.74492" lon="-1.0832">
        <ele>3.8</ele>
      </trkpt>
      <trkpt lat="45.74513" lon="-1.08292">
        <ele>4</ele>
      </trkpt>
      <trkpt lat="45.7452" lon="-1.08289">
        <ele>3.9</ele>
      </trkpt>
      <trkpt lat="45.74521" lon="-1.08304">
        <ele>3.3</ele>
      </trkpt>
      <trkpt lat="45.74526" lon="-1.0833">
        <ele>3</ele>
      </trkpt>
      <trkpt lat="45.74534" lon="-1.08356">
        <ele>3</ele>
      </trkpt>
      <trkpt lat="45.7454" lon="-1.08366">
        <ele>3</ele>
      </trkpt>
      <trkpt lat="45.74564" lon="-1.08351">
        <ele>3</ele>
      </trkpt>
      <trkpt lat="45.74599" lon="-1.08345">
        <ele>3</ele>
      </trkpt>
      <trkpt lat="45.74628" lon="-1.08338">
        <ele>3</ele>
      </trkpt>
      <trkpt lat="45.7468" lon="-1.08331">
        <ele>3</ele>
      </trkpt>
      <trkpt lat="45.74777" lon="-1.08309">
        <ele>2.9</ele>
      </trkpt>
      <trkpt lat="45.74813" lon="-1.08307">
        <ele>3</ele>
      </trkpt>
      <trkpt lat="45.74817" lon="-1.08318">
        <ele>3</ele>
      </trkpt>
      <trkpt lat="45.74823" lon="-1.08325">
        <ele>3</ele>
      </trkpt>
      <trkpt lat="45.74831" lon="-1.08326">
        <ele>3</ele>
      </trkpt>
      <trkpt lat="45.74889" lon="-1.08307">
        <ele>3</ele>
      </trkpt>
      <trkpt lat="45.74896" lon="-1.08305">
        <ele>3.2</ele>
      </trkpt>
      <trkpt lat="45.74881" lon="-1.08222">
        <ele>2.7</ele>
      </trkpt>
      <trkpt lat="45.74887" lon="-1.08205">
        <ele>2.4</ele>
      </trkpt>
      <trkpt lat="45.74923" lon="-1.08185">
        <ele>2.5</ele>
      </trkpt>
      <trkpt lat="45.74957" lon="-1.08158">
        <ele>2.5</ele>
      </trkpt>
      <trkpt lat="45.74975" lon="-1.08148">
        <ele>2.9</ele>
      </trkpt>
      <trkpt lat="45.75019" lon="-1.08088">
        <ele>2.6</ele>
      </trkpt>
      <trkpt lat="45.75029" lon="-1.08077">
        <ele>2.7</ele>
      </trkpt>
      <trkpt lat="45.75037" lon="-1.08071">
        <ele>2.5</ele>
      </trkpt>
      <trkpt lat="45.75015" lon="-1.08043">
        <ele>2.5</ele>
      </trkpt>
      <trkpt lat="45.75005" lon="-1.08034">
        <ele>2.8</ele>
      </trkpt>
      <trkpt lat="45.74971" lon="-1.07973">
        <ele>3.9</ele>
      </trkpt>
      <trkpt lat="45.74933" lon="-1.08021">
        <ele>2.7</ele>
      </trkpt>
      <trkpt lat="45.74924" lon="-1.08029">
        <ele>2.7</ele>
      </trkpt>
      <trkpt lat="45.74896" lon="-1.08042">
        <ele>2.6</ele>
      </trkpt>
      <trkpt lat="45.7489" lon="-1.08048">
        <ele>2.7</ele>
      </trkpt>
      <trkpt lat="45.74875" lon="-1.08052">
        <ele>2.9</ele>
      </trkpt>
      <trkpt lat="45.74866" lon="-1.0805">
        <ele>3</ele>
      </trkpt>
      <trkpt lat="45.74835" lon="-1.08036">
        <ele>3.4</ele>
      </trkpt>
      <trkpt lat="45.74828" lon="-1.08035">
        <ele>4</ele>
      </trkpt>
      <trkpt lat="45.74825" lon="-1.08048">
        <ele>3.6</ele>
      </trkpt>
      <trkpt lat="45.74818" lon="-1.0807">
        <ele>3.9</ele>
      </trkpt>
      <trkpt lat="45.74806" lon="-1.08081">
        <ele>5</ele>
      </trkpt>
      <trkpt lat="45.74769" lon="-1.08111">
        <ele>5</ele>
      </trkpt>
      <trkpt lat="45.74762" lon="-1.08095">
        <ele>5.6</ele>
      </trkpt>
      <trkpt lat="45.74763" lon="-1.08087">
        <ele>5.9</ele>
      </trkpt>
      <trkpt lat="45.74769" lon="-1.0807">
        <ele>6.5</ele>
      </trkpt>
      <trkpt lat="45.74781" lon="-1.08058">
        <ele>6.8</ele>
      </trkpt>
      <trkpt lat="45.74788" lon="-1.08043">
        <ele>6.6</ele>
      </trkpt>
      <trkpt lat="45.7479" lon="-1.0803">
        <ele>6.5</ele>
      </trkpt>
      <trkpt lat="45.7479" lon="-1.08007">
        <ele>6.5</ele>
      </trkpt>
      <trkpt lat="45.7478" lon="-1.07987">
        <ele>7.4</ele>
      </trkpt>
      <trkpt lat="45.7475" lon="-1.07992">
        <ele>8.3</ele>
      </trkpt>
      <trkpt lat="45.74701" lon="-1.08031">
        <ele>8.6</ele>
      </trkpt>
      <trkpt lat="45.74688" lon="-1.08031">
        <ele>8.6</ele>
      </trkpt>
      <trkpt lat="45.74653" lon="-1.07989">
        <ele>9.1</ele>
      </trkpt>
      <trkpt lat="45.74636" lon="-1.0795">
        <ele>10.7</ele>
      </trkpt>
      <trkpt lat="45.74634" lon="-1.07929">
        <ele>11.4</ele>
      </trkpt>
      <trkpt lat="45.74601" lon="-1.07824">
        <ele>12.6</ele>
      </trkpt>
      <trkpt lat="45.7459" lon="-1.0779">
        <ele>12.2</ele>
      </trkpt>
      <trkpt lat="45.74572" lon="-1.07742">
        <ele>11.9</ele>
      </trkpt>
      <trkpt lat="45.74571" lon="-1.07685">
        <ele>11</ele>
      </trkpt>
      <trkpt lat="45.74564" lon="-1.07631">
        <ele>10.7</ele>
      </trkpt>
      <trkpt lat="45.74543" lon="-1.07586">
        <ele>10</ele>
      </trkpt>
      <trkpt lat="45.74535" lon="-1.07583">
        <ele>10</ele>
      </trkpt>
      <trkpt lat="45.74512" lon="-1.07595">
        <ele>10</ele>
      </trkpt>
      <trkpt lat="45.74503" lon="-1.0759">
        <ele>10</ele>
      </trkpt>
      <trkpt lat="45.7447" lon="-1.07511">
        <ele>8.4</ele>
      </trkpt>
      <trkpt lat="45.74434" lon="-1.0743">
        <ele>6.6</ele>
      </trkpt>
      <trkpt lat="45.74403" lon="-1.07345">
        <ele>4.7</ele>
      </trkpt>
      <trkpt lat="45.74375" lon="-1.07288">
        <ele>3.5</ele>
      </trkpt>
      <trkpt lat="45.74359" lon="-1.0727">
        <ele>3</ele>
      </trkpt>
      <trkpt lat="45.74382" lon="-1.07232">
        <ele>4.441406</ele>
        <time>2013-05-29T14:26:08Z</time>
      </trkpt>
      <trkpt lat="45.74396" lon="-1.07215">
        <ele>4.433594</ele>
        <time>2013-05-29T14:26:17Z</time>
      </trkpt>
      <trkpt lat="45.74454" lon="-1.07157">
        <ele>4</ele>
        <time>2013-05-29T14:27:23Z</time>
      </trkpt>
      <trkpt lat="45.74468" lon="-1.07142">
        <ele>4</ele>
        <time>2013-05-29T14:31:45Z</time>
      </trkpt>
      <trkpt lat="45.74467" lon="-1.0713">
        <ele>4</ele>
        <time>2013-05-29T14:31:55Z</time>
      </trkpt>
      <trkpt lat="45.74463" lon="-1.07122">
        <ele>4</ele>
        <time>2013-05-29T14:32:11Z</time>
      </trkpt>
      <trkpt lat="45.74457" lon="-1.07114">
        <ele>4</ele>
        <time>2013-05-29T14:32:21Z</time>
      </trkpt>
      <trkpt lat="45.74452" lon="-1.07104">
        <ele>4</ele>
        <time>2013-05-29T14:32:31Z</time>
      </trkpt>
      <trkpt lat="45.74446" lon="-1.07092">
        <ele>3.859375</ele>
        <time>2013-05-29T14:32:40Z</time>
      </trkpt>
      <trkpt lat="45.74441" lon="-1.0708">
        <ele>3.65625</ele>
        <time>2013-05-29T14:32:49Z</time>
      </trkpt>
      <trkpt lat="45.74436" lon="-1.07068">
        <ele>3.410156</ele>
        <time>2013-05-29T14:32:58Z</time>
      </trkpt>
      <trkpt lat="45.7443" lon="-1.07057">
        <ele>3.265625</ele>
        <time>2013-05-29T14:33:06Z</time>
      </trkpt>
      <trkpt lat="45.74426" lon="-1.07045">
        <ele>3.164062</ele>
        <time>2013-05-29T14:33:14Z</time>
      </trkpt>
      <trkpt lat="45.7442" lon="-1.07034">
        <ele>3.210938</ele>
        <time>2013-05-29T14:33:23Z</time>
      </trkpt>
      <trkpt lat="45.74416" lon="-1.07021">
        <ele>3.191406</ele>
        <time>2013-05-29T14:33:32Z</time>
      </trkpt>
      <trkpt lat="45.7441" lon="-1.07009">
        <ele>3.148438</ele>
        <time>2013-05-29T14:33:41Z</time>
      </trkpt>
      <trkpt lat="45.74405" lon="-1.06996">
        <ele>3.058594</ele>
        <time>2013-05-29T14:33:49Z</time>
      </trkpt>
      <trkpt lat="45.74398" lon="-1.06986">
        <ele>3</ele>
        <time>2013-05-29T14:33:57Z</time>
      </trkpt>
      <trkpt lat="45.74392" lon="-1.06975">
        <ele>3</ele>
        <time>2013-05-29T14:34:06Z</time>
      </trkpt>
      <trkpt lat="45.74385" lon="-1.06962">
        <ele>3</ele>
        <time>2013-05-29T14:34:14Z</time>
      </trkpt>
      <trkpt lat="45.74378" lon="-1.0695">
        <ele>3.03125</ele>
        <time>2013-05-29T14:34:22Z</time>
      </trkpt>
      <trkpt lat="45.74371" lon="-1.06941">
        <ele>3.160156</ele>
        <time>2013-05-29T14:34:29Z</time>
      </trkpt>
      <trkpt lat="45.74366" lon="-1.0693">
        <ele>3.308594</ele>
        <time>2013-05-29T14:34:36Z</time>
      </trkpt>
      <trkpt lat="45.74361" lon="-1.06918">
        <ele>3.535156</ele>
        <time>2013-05-29T14:34:46Z</time>
      </trkpt>
      <trkpt lat="45.74354" lon="-1.06906">
        <ele>3.734375</ele>
        <time>2013-05-29T14:34:55Z</time>
      </trkpt>
      <trkpt lat="45.74348" lon="-1.06894">
        <ele>3.886719</ele>
        <time>2013-05-29T14:35:04Z</time>
      </trkpt>
      <trkpt lat="45.7434" lon="-1.06882">
        <ele>3.984375</ele>
        <time>2013-05-29T14:35:13Z</time>
      </trkpt>
      <trkpt lat="45.74334" lon="-1.06871">
        <ele>4.117188</ele>
        <time>2013-05-29T14:35:21Z</time>
      </trkpt>
      <trkpt lat="45.74327" lon="-1.06862">
        <ele>4.292969</ele>
        <time>2013-05-29T14:35:28Z</time>
      </trkpt>
      <trkpt lat="45.7432" lon="-1.06851">
        <ele>4.535156</ele>
        <time>2013-05-29T14:35:35Z</time>
      </trkpt>
      <trkpt lat="45.74314" lon="-1.06841">
        <ele>4.75</ele>
        <time>2013-05-29T14:35:43Z</time>
      </trkpt>
      <trkpt lat="45.74307" lon="-1.06831">
        <ele>4.90625</ele>
        <time>2013-05-29T14:35:50Z</time>
      </trkpt>
      <trkpt lat="45.74301" lon="-1.06821">
        <ele>4.96875</ele>
        <time>2013-05-29T14:35:57Z</time>
      </trkpt>
      <trkpt lat="45.74294" lon="-1.06812">
        <ele>4.902344</ele>
        <time>2013-05-29T14:36:05Z</time>
      </trkpt>
      <trkpt lat="45.74287" lon="-1.06804">
        <ele>4.882812</ele>
        <time>2013-05-29T14:36:13Z</time>
      </trkpt>
      <trkpt lat="45.7428" lon="-1.06795">
        <ele>4.890625</ele>
        <time>2013-05-29T14:36:21Z</time>
      </trkpt>
      <trkpt lat="45.74273" lon="-1.06785">
        <ele>4.9375</ele>
        <time>2013-05-29T14:36:29Z</time>
      </trkpt>
      <trkpt lat="45.74267" lon="-1.06775">
        <ele>5.027344</ele>
        <time>2013-05-29T14:36:36Z</time>
      </trkpt>
      <trkpt lat="45.74261" lon="-1.06765">
        <ele>5.121094</ele>
        <time>2013-05-29T14:36:44Z</time>
      </trkpt>
      <trkpt lat="45.74254" lon="-1.06755">
        <ele>5.195312</ele>
        <time>2013-05-29T14:36:52Z</time>
      </trkpt>
      <trkpt lat="45.74249" lon="-1.06743">
        <ele>5.191406</ele>
        <time>2013-05-29T14:37:00Z</time>
      </trkpt>
      <trkpt lat="45.7424" lon="-1.06733">
        <ele>5.183594</ele>
        <time>2013-05-29T14:37:08Z</time>
      </trkpt>
      <trkpt lat="45.74232" lon="-1.06724">
        <ele>5.132812</ele>
        <time>2013-05-29T14:37:15Z</time>
      </trkpt>
      <trkpt lat="45.74226" lon="-1.06713">
        <ele>5.003906</ele>
        <time>2013-05-29T14:37:23Z</time>
      </trkpt>
      <trkpt lat="45.7422" lon="-1.06703">
        <ele>4.832031</ele>
        <time>2013-05-29T14:37:31Z</time>
      </trkpt>
      <trkpt lat="45.74215" lon="-1.06693">
        <ele>4.640625</ele>
        <time>2013-05-29T14:37:39Z</time>
      </trkpt>
      <trkpt lat="45.74209" lon="-1.06681">
        <ele>4.652344</ele>
        <time>2013-05-29T14:37:48Z</time>
      </trkpt>
      <trkpt lat="45.74202" lon="-1.0667">
        <ele>4.796875</ele>
        <time>2013-05-29T14:37:56Z</time>
      </trkpt>
      <trkpt lat="45.74197" lon="-1.06661">
        <ele>4.941406</ele>
        <time>2013-05-29T14:38:04Z</time>
      </trkpt>
      <trkpt lat="45.74189" lon="-1.06651">
        <ele>5.140625</ele>
        <time>2013-05-29T14:38:13Z</time>
      </trkpt>
      <trkpt lat="45.74181" lon="-1.06642">
        <ele>5.300781</ele>
        <time>2013-05-29T14:38:21Z</time>
      </trkpt>
      <trkpt lat="45.74174" lon="-1.06631">
        <ele>5.300781</ele>
        <time>2013-05-29T14:38:29Z</time>
      </trkpt>
      <trkpt lat="45.74168" lon="-1.06621">
        <ele>5.269531</ele>
        <time>2013-05-29T14:38:37Z</time>
      </trkpt>
      <trkpt lat="45.74161" lon="-1.06612">
        <ele>5.203125</ele>
        <time>2013-05-29T14:38:45Z</time>
      </trkpt>
      <trkpt lat="45.74154" lon="-1.06603">
        <ele>5.226562</ele>
        <time>2013-05-29T14:38:52Z</time>
      </trkpt>
      <trkpt lat="45.74148" lon="-1.06594">
        <ele>5.328125</ele>
        <time>2013-05-29T14:38:59Z</time>
      </trkpt>
      <trkpt lat="45.74142" lon="-1.06584">
        <ele>5.34375</ele>
        <time>2013-05-29T14:39:07Z</time>
      </trkpt>
      <trkpt lat="45.74134" lon="-1.06576">
        <ele>5.402344</ele>
        <time>2013-05-29T14:39:14Z</time>
      </trkpt>
      <trkpt lat="45.74126" lon="-1.06569">
        <ele>5.46875</ele>
        <time>2013-05-29T14:39:21Z</time>
      </trkpt>
      <trkpt lat="45.74118" lon="-1.06561">
        <ele>5.371094</ele>
        <time>2013-05-29T14:39:29Z</time>
      </trkpt>
      <trkpt lat="45.74111" lon="-1.06553">
        <ele>5.175781</ele>
        <time>2013-05-29T14:39:38Z</time>
      </trkpt>
      <trkpt lat="45.74102" lon="-1.06546">
        <ele>4.988281</ele>
        <time>2013-05-29T14:39:46Z</time>
      </trkpt>
      <trkpt lat="45.74093" lon="-1.06538">
        <ele>5.265625</ele>
        <time>2013-05-29T14:39:55Z</time>
      </trkpt>
      <trkpt lat="45.74085" lon="-1.06531">
        <ele>5.46875</ele>
        <time>2013-05-29T14:40:03Z</time>
      </trkpt>
      <trkpt lat="45.74077" lon="-1.06524">
        <ele>5.589844</ele>
        <time>2013-05-29T14:40:12Z</time>
      </trkpt>
      <trkpt lat="45.74068" lon="-1.06515">
        <ele>5.605469</ele>
        <time>2013-05-29T14:40:20Z</time>
      </trkpt>
      <trkpt lat="45.74059" lon="-1.06507">
        <ele>5.515625</ele>
        <time>2013-05-29T14:40:30Z</time>
      </trkpt>
      <trkpt lat="45.74049" lon="-1.06496">
        <ele>5.222656</ele>
        <time>2013-05-29T14:40:39Z</time>
      </trkpt>
      <trkpt lat="45.74042" lon="-1.06486">
        <ele>5.058594</ele>
        <time>2013-05-29T14:40:46Z</time>
      </trkpt>
      <trkpt lat="45.74034" lon="-1.06474">
        <ele>5.085938</ele>
        <time>2013-05-29T14:40:56Z</time>
      </trkpt>
      <trkpt lat="45.74024" lon="-1.06464">
        <ele>5.117188</ele>
        <time>2013-05-29T14:41:05Z</time>
      </trkpt>
      <trkpt lat="45.74018" lon="-1.06451">
        <ele>4.941406</ele>
        <time>2013-05-29T14:41:15Z</time>
      </trkpt>
      <trkpt lat="45.74012" lon="-1.0644">
        <ele>4.742188</ele>
        <time>2013-05-29T14:41:23Z</time>
      </trkpt>
      <trkpt lat="45.74006" lon="-1.06427">
        <ele>4.566406</ele>
        <time>2013-05-29T14:41:32Z</time>
      </trkpt>
      <trkpt lat="45.73998" lon="-1.06415">
        <ele>4.507812</ele>
        <time>2013-05-29T14:41:40Z</time>
      </trkpt>
      <trkpt lat="45.73993" lon="-1.06402">
        <ele>4.363281</ele>
        <time>2013-05-29T14:41:48Z</time>
      </trkpt>
      <trkpt lat="45.73987" lon="-1.06392">
        <ele>4.308594</ele>
        <time>2013-05-29T14:41:57Z</time>
      </trkpt>
      <trkpt lat="45.7398" lon="-1.0638">
        <ele>4.214844</ele>
        <time>2013-05-29T14:42:06Z</time>
      </trkpt>
      <trkpt lat="45.73974" lon="-1.0637">
        <ele>4.308594</ele>
        <time>2013-05-29T14:42:14Z</time>
      </trkpt>
      <trkpt lat="45.7397" lon="-1.06358">
        <ele>4.378906</ele>
        <time>2013-05-29T14:42:23Z</time>
      </trkpt>
      <trkpt lat="45.73963" lon="-1.06349">
        <ele>4.503906</ele>
        <time>2013-05-29T14:42:31Z</time>
      </trkpt>
      <trkpt lat="45.73956" lon="-1.06339">
        <ele>4.621094</ele>
        <time>2013-05-29T14:42:39Z</time>
      </trkpt>
      <trkpt lat="45.73948" lon="-1.06332">
        <ele>4.765625</ele>
        <time>2013-05-29T14:42:47Z</time>
      </trkpt>
      <trkpt lat="45.73944" lon="-1.06321">
        <ele>4.800781</ele>
        <time>2013-05-29T14:42:55Z</time>
      </trkpt>
      <trkpt lat="45.73938" lon="-1.06311">
        <ele>4.722656</ele>
        <time>2013-05-29T14:43:03Z</time>
      </trkpt>
      <trkpt lat="45.73931" lon="-1.06302">
        <ele>4.667969</ele>
        <time>2013-05-29T14:43:11Z</time>
      </trkpt>
      <trkpt lat="45.73924" lon="-1.06294">
        <ele>4.671875</ele>
        <time>2013-05-29T14:43:19Z</time>
      </trkpt>
      <trkpt lat="45.73915" lon="-1.06287">
        <ele>4.699219</ele>
        <time>2013-05-29T14:43:27Z</time>
      </trkpt>
      <trkpt lat="45.73906" lon="-1.06279">
        <ele>4.707031</ele>
        <time>2013-05-29T14:43:35Z</time>
      </trkpt>
      <trkpt lat="45.73898" lon="-1.06272">
        <ele>4.730469</ele>
        <time>2013-05-29T14:43:44Z</time>
      </trkpt>
      <trkpt lat="45.73889" lon="-1.06264">
        <ele>4.761719</ele>
        <time>2013-05-29T14:43:52Z</time>
      </trkpt>
      <trkpt lat="45.73878" lon="-1.06255">
        <ele>4.792969</ele>
        <time>2013-05-29T14:44:01Z</time>
      </trkpt>
      <trkpt lat="45.73872" lon="-1.06246">
        <ele>4.789062</ele>
        <time>2013-05-29T14:44:09Z</time>
      </trkpt>
      <trkpt lat="45.73865" lon="-1.06238">
        <ele>4.863281</ele>
        <time>2013-05-29T14:44:17Z</time>
      </trkpt>
      <trkpt lat="45.7386" lon="-1.06229">
        <ele>4.910156</ele>
        <time>2013-05-29T14:44:25Z</time>
      </trkpt>
      <trkpt lat="45.73854" lon="-1.06219">
        <ele>4.988281</ele>
        <time>2013-05-29T14:44:34Z</time>
      </trkpt>
      <trkpt lat="45.73847" lon="-1.06209">
        <ele>5.097656</ele>
        <time>2013-05-29T14:44:42Z</time>
      </trkpt>
      <trkpt lat="45.73839" lon="-1.06198">
        <ele>5.089844</ele>
        <time>2013-05-29T14:44:50Z</time>
      </trkpt>
      <trkpt lat="45.73831" lon="-1.0619">
        <ele>5.011719</ele>
        <time>2013-05-29T14:44:58Z</time>
      </trkpt>
      <trkpt lat="45.73824" lon="-1.06181">
        <ele>4.84375</ele>
        <time>2013-05-29T14:45:06Z</time>
      </trkpt>
      <trkpt lat="45.73818" lon="-1.06172">
        <ele>4.71875</ele>
        <time>2013-05-29T14:45:14Z</time>
      </trkpt>
      <trkpt lat="45.73811" lon="-1.06163">
        <ele>4.664062</ele>
        <time>2013-05-29T14:45:22Z</time>
      </trkpt>
      <trkpt lat="45.73803" lon="-1.06153">
        <ele>4.746094</ele>
        <time>2013-05-29T14:45:32Z</time>
      </trkpt>
      <trkpt lat="45.73795" lon="-1.06142">
        <ele>4.898438</ele>
        <time>2013-05-29T14:45:41Z</time>
      </trkpt>
      <trkpt lat="45.73786" lon="-1.06134">
        <ele>5.082031</ele>
        <time>2013-05-29T14:45:50Z</time>
      </trkpt>
      <trkpt lat="45.73777" lon="-1.06125">
        <ele>5.21875</ele>
        <time>2013-05-29T14:45:59Z</time>
      </trkpt>
      <trkpt lat="45.73769" lon="-1.06115">
        <ele>5.246094</ele>
        <time>2013-05-29T14:46:08Z</time>
      </trkpt>
      <trkpt lat="45.73762" lon="-1.06103">
        <ele>5.140625</ele>
        <time>2013-05-29T14:46:18Z</time>
      </trkpt>
      <trkpt lat="45.73754" lon="-1.06094">
        <ele>5.089844</ele>
        <time>2013-05-29T14:46:26Z</time>
      </trkpt>
      <trkpt lat="45.73747" lon="-1.06084">
        <ele>4.9375</ele>
        <time>2013-05-29T14:46:35Z</time>
      </trkpt>
      <trkpt lat="45.7374" lon="-1.06072">
        <ele>4.6875</ele>
        <time>2013-05-29T14:46:44Z</time>
      </trkpt>
      <trkpt lat="45.73734" lon="-1.06062">
        <ele>4.453125</ele>
        <time>2013-05-29T14:46:52Z</time>
      </trkpt>
      <trkpt lat="45.73729" lon="-1.06049">
        <ele>4.09375</ele>
        <time>2013-05-29T14:47:01Z</time>
      </trkpt>
      <trkpt lat="45.73722" lon="-1.06039">
        <ele>4</ele>
        <time>2013-05-29T14:47:09Z</time>
      </trkpt>
      <trkpt lat="45.73714" lon="-1.0603">
        <ele>4</ele>
        <time>2013-05-29T14:47:18Z</time>
      </trkpt>
      <trkpt lat="45.7371" lon="-1.06014">
        <ele>4.054688</ele>
        <time>2013-05-29T14:47:27Z</time>
      </trkpt>
      <trkpt lat="45.73699" lon="-1.06007">
        <ele>4.148438</ele>
        <time>2013-05-29T14:47:36Z</time>
      </trkpt>
      <trkpt lat="45.73688" lon="-1.06">
        <ele>4.148438</ele>
        <time>2013-05-29T14:47:46Z</time>
      </trkpt>
      <trkpt lat="45.73679" lon="-1.05996">
        <ele>4.117188</ele>
        <time>2013-05-29T14:47:55Z</time>
      </trkpt>
      <trkpt lat="45.73669" lon="-1.05991">
        <ele>3.996094</ele>
        <time>2013-05-29T14:48:04Z</time>
      </trkpt>
      <trkpt lat="45.7366" lon="-1.05989">
        <ele>3.957031</ele>
        <time>2013-05-29T14:48:12Z</time>
      </trkpt>
      <trkpt lat="45.73649" lon="-1.05987">
        <ele>4.097656</ele>
        <time>2013-05-29T14:48:21Z</time>
      </trkpt>
      <trkpt lat="45.73637" lon="-1.05988">
        <ele>4.316406</ele>
        <time>2013-05-29T14:48:30Z</time>
      </trkpt>
      <trkpt lat="45.73627" lon="-1.05986">
        <ele>4.453125</ele>
        <time>2013-05-29T14:48:38Z</time>
      </trkpt>
      <trkpt lat="45.73618" lon="-1.05986">
        <ele>4.640625</ele>
        <time>2013-05-29T14:48:47Z</time>
      </trkpt>
      <trkpt lat="45.73609" lon="-1.05988">
        <ele>4.828125</ele>
        <time>2013-05-29T14:48:55Z</time>
      </trkpt>
      <trkpt lat="45.73599" lon="-1.05991">
        <ele>4.933594</ele>
        <time>2013-05-29T14:49:04Z</time>
      </trkpt>
      <trkpt lat="45.73589" lon="-1.05997">
        <ele>4.792969</ele>
        <time>2013-05-29T14:49:13Z</time>
      </trkpt>
      <trkpt lat="45.7358" lon="-1.06005">
        <ele>4.695312</ele>
        <time>2013-05-29T14:49:22Z</time>
      </trkpt>
      <trkpt lat="45.73572" lon="-1.06011">
        <ele>4.652344</ele>
        <time>2013-05-29T14:49:29Z</time>
      </trkpt>
      <trkpt lat="45.73563" lon="-1.06016">
        <ele>4.617188</ele>
        <time>2013-05-29T14:49:39Z</time>
      </trkpt>
      <trkpt lat="45.73553" lon="-1.06014">
        <ele>4.480469</ele>
        <time>2013-05-29T14:49:49Z</time>
      </trkpt>
      <trkpt lat="45.73547" lon="-1.06004">
        <ele>4.230469</ele>
        <time>2013-05-29T14:49:57Z</time>
      </trkpt>
      <trkpt lat="45.73539" lon="-1.05998">
        <ele>3.992188</ele>
        <time>2013-05-29T14:50:04Z</time>
      </trkpt>
      <trkpt lat="45.7353" lon="-1.05993">
        <ele>3.742188</ele>
        <time>2013-05-29T14:50:12Z</time>
      </trkpt>
      <trkpt lat="45.73521" lon="-1.05988">
        <ele>3.511719</ele>
        <time>2013-05-29T14:50:20Z</time>
      </trkpt>
      <trkpt lat="45.73512" lon="-1.05983">
        <ele>3.3125</ele>
        <time>2013-05-29T14:50:29Z</time>
      </trkpt>
      <trkpt lat="45.73503" lon="-1.05979">
        <ele>3.160156</ele>
        <time>2013-05-29T14:50:38Z</time>
      </trkpt>
      <trkpt lat="45.73494" lon="-1.05976">
        <ele>3.039062</ele>
        <time>2013-05-29T14:50:46Z</time>
      </trkpt>
      <trkpt lat="45.73484" lon="-1.05975">
        <ele>3</ele>
        <time>2013-05-29T14:50:54Z</time>
      </trkpt>
      <trkpt lat="45.73475" lon="-1.05973">
        <ele>3</ele>
        <time>2013-05-29T14:51:02Z</time>
      </trkpt>
      <trkpt lat="45.73466" lon="-1.05971">
        <ele>3</ele>
        <time>2013-05-29T14:51:10Z</time>
      </trkpt>
      <trkpt lat="45.73456" lon="-1.05969">
        <ele>3</ele>
        <time>2013-05-29T14:51:17Z</time>
      </trkpt>
      <trkpt lat="45.73447" lon="-1.05967">
        <ele>3</ele>
        <time>2013-05-29T14:51:25Z</time>
      </trkpt>
      <trkpt lat="45.73438" lon="-1.05964">
        <ele>3</ele>
        <time>2013-05-29T14:51:32Z</time>
      </trkpt>
      <trkpt lat="45.73429" lon="-1.0596">
        <ele>3.0625</ele>
        <time>2013-05-29T14:51:40Z</time>
      </trkpt>
      <trkpt lat="45.73421" lon="-1.05953">
        <ele>3.179688</ele>
        <time>2013-05-29T14:51:48Z</time>
      </trkpt>
      <trkpt lat="45.73411" lon="-1.05946">
        <ele>3.351562</ele>
        <time>2013-05-29T14:51:57Z</time>
      </trkpt>
      <trkpt lat="45.73404" lon="-1.05938">
        <ele>3.539062</ele>
        <time>2013-05-29T14:52:05Z</time>
      </trkpt>
      <trkpt lat="45.73398" lon="-1.05925">
        <ele>3.675781</ele>
        <time>2013-05-29T14:52:13Z</time>
      </trkpt>
      <trkpt lat="45.73392" lon="-1.05915">
        <ele>3.792969</ele>
        <time>2013-05-29T14:52:21Z</time>
      </trkpt>
      <trkpt lat="45.73385" lon="-1.05904">
        <ele>3.917969</ele>
        <time>2013-05-29T14:52:30Z</time>
      </trkpt>
      <trkpt lat="45.73376" lon="-1.05893">
        <ele>4</ele>
        <time>2013-05-29T14:52:38Z</time>
      </trkpt>
      <trkpt lat="45.73369" lon="-1.05883">
        <ele>4</ele>
        <time>2013-05-29T14:52:46Z</time>
      </trkpt>
      <trkpt lat="45.73362" lon="-1.05873">
        <ele>4</ele>
        <time>2013-05-29T14:52:54Z</time>
      </trkpt>
      <trkpt lat="45.73355" lon="-1.05863">
        <ele>4</ele>
        <time>2013-05-29T14:53:01Z</time>
      </trkpt>
      <trkpt lat="45.73349" lon="-1.05853">
        <ele>4</ele>
        <time>2013-05-29T14:53:09Z</time>
      </trkpt>
      <trkpt lat="45.73342" lon="-1.05842">
        <ele>4</ele>
        <time>2013-05-29T14:53:17Z</time>
      </trkpt>
      <trkpt lat="45.73336" lon="-1.05833">
        <ele>4</ele>
        <time>2013-05-29T14:53:25Z</time>
      </trkpt>
      <trkpt lat="45.73329" lon="-1.05824">
        <ele>4.007812</ele>
        <time>2013-05-29T14:53:33Z</time>
      </trkpt>
      <trkpt lat="45.73322" lon="-1.05814">
        <ele>4.222656</ele>
        <time>2013-05-29T14:53:41Z</time>
      </trkpt>
      <trkpt lat="45.73315" lon="-1.05805">
        <ele>4.46875</ele>
        <time>2013-05-29T14:53:49Z</time>
      </trkpt>
      <trkpt lat="45.73308" lon="-1.05796">
        <ele>4.65625</ele>
        <time>2013-05-29T14:53:57Z</time>
      </trkpt>
      <trkpt lat="45.73302" lon="-1.05785">
        <ele>4.824219</ele>
        <time>2013-05-29T14:54:05Z</time>
      </trkpt>
      <trkpt lat="45.73294" lon="-1.05778">
        <ele>4.925781</ele>
        <time>2013-05-29T14:54:12Z</time>
      </trkpt>
      <trkpt lat="45.73289" lon="-1.0577">
        <ele>4.992188</ele>
        <time>2013-05-29T14:54:19Z</time>
      </trkpt>
      <trkpt lat="45.73281" lon="-1.05761">
        <ele>4.851562</ele>
        <time>2013-05-29T14:54:27Z</time>
      </trkpt>
      <trkpt lat="45.73274" lon="-1.0575">
        <ele>4.652344</ele>
        <time>2013-05-29T14:54:36Z</time>
      </trkpt>
      <trkpt lat="45.73268" lon="-1.0574">
        <ele>4.476562</ele>
        <time>2013-05-29T14:54:44Z</time>
      </trkpt>
      <trkpt lat="45.73262" lon="-1.0573">
        <ele>4.300781</ele>
        <time>2013-05-29T14:54:51Z</time>
      </trkpt>
      <trkpt lat="45.73255" lon="-1.0572">
        <ele>4.128906</ele>
        <time>2013-05-29T14:54:59Z</time>
      </trkpt>
      <trkpt lat="45.7325" lon="-1.0571">
        <ele>4</ele>
        <time>2013-05-29T14:55:06Z</time>
      </trkpt>
      <trkpt lat="45.73242" lon="-1.05703">
        <ele>4</ele>
        <time>2013-05-29T14:55:15Z</time>
      </trkpt>
      <trkpt lat="45.73232" lon="-1.05706">
        <ele>4</ele>
        <time>2013-05-29T14:55:23Z</time>
      </trkpt>
      <trkpt lat="45.73224" lon="-1.05709">
        <ele>4</ele>
        <time>2013-05-29T14:55:32Z</time>
      </trkpt>
      <trkpt lat="45.73214" lon="-1.05712">
        <ele>4</ele>
        <time>2013-05-29T14:55:40Z</time>
      </trkpt>
      <trkpt lat="45.73204" lon="-1.05716">
        <ele>4.03125</ele>
        <time>2013-05-29T14:55:48Z</time>
      </trkpt>
      <trkpt lat="45.73193" lon="-1.05718">
        <ele>4.058594</ele>
        <time>2013-05-29T14:55:57Z</time>
      </trkpt>
      <trkpt lat="45.73184" lon="-1.05722">
        <ele>4.074219</ele>
        <time>2013-05-29T14:56:06Z</time>
      </trkpt>
      <trkpt lat="45.73173" lon="-1.05724">
        <ele>4.050781</ele>
        <time>2013-05-29T14:56:15Z</time>
      </trkpt>
      <trkpt lat="45.73163" lon="-1.05728">
        <ele>4.023438</ele>
        <time>2013-05-29T14:56:23Z</time>
      </trkpt>
      <trkpt lat="45.73153" lon="-1.0573">
        <ele>4</ele>
        <time>2013-05-29T14:56:31Z</time>
      </trkpt>
      <trkpt lat="45.73143" lon="-1.05734">
        <ele>4</ele>
        <time>2013-05-29T14:56:40Z</time>
      </trkpt>
      <trkpt lat="45.73133" lon="-1.05737">
        <ele>4</ele>
        <time>2013-05-29T14:56:48Z</time>
      </trkpt>
      <trkpt lat="45.73122" lon="-1.05741">
        <ele>4</ele>
        <time>2013-05-29T14:56:58Z</time>
      </trkpt>
      <trkpt lat="45.73112" lon="-1.05746">
        <ele>4</ele>
        <time>2013-05-29T14:57:07Z</time>
      </trkpt>
      <trkpt lat="45.73104" lon="-1.05755">
        <ele>4</ele>
        <time>2013-05-29T14:57:16Z</time>
      </trkpt>
      <trkpt lat="45.73094" lon="-1.05763">
        <ele>4</ele>
        <time>2013-05-29T14:57:25Z</time>
      </trkpt>
      <trkpt lat="45.73083" lon="-1.05767">
        <ele>4</ele>
        <time>2013-05-29T14:57:34Z</time>
      </trkpt>
      <trkpt lat="45.73072" lon="-1.05775">
        <ele>4.101562</ele>
        <time>2013-05-29T14:57:44Z</time>
      </trkpt>
      <trkpt lat="45.73063" lon="-1.05787">
        <ele>4.328125</ele>
        <time>2013-05-29T14:57:54Z</time>
      </trkpt>
      <trkpt lat="45.73054" lon="-1.05797">
        <ele>4.503906</ele>
        <time>2013-05-29T14:58:04Z</time>
      </trkpt>
      <trkpt lat="45.73045" lon="-1.05804">
        <ele>4.632812</ele>
        <time>2013-05-29T14:58:12Z</time>
      </trkpt>
      <trkpt lat="45.73044" lon="-1.05816">
        <ele>4.84375</ele>
        <time>2013-05-29T14:58:20Z</time>
      </trkpt>
      <trkpt lat="45.73045" lon="-1.0583">
        <ele>5</ele>
        <time>2013-05-29T14:58:29Z</time>
      </trkpt>
      <trkpt lat="45.73045" lon="-1.05846">
        <ele>5</ele>
        <time>2013-05-29T14:58:38Z</time>
      </trkpt>
      <trkpt lat="45.7304" lon="-1.0586">
        <ele>5</ele>
        <time>2013-05-29T14:58:48Z</time>
      </trkpt>
      <trkpt lat="45.73034" lon="-1.05872">
        <ele>5</ele>
        <time>2013-05-29T14:59:00Z</time>
      </trkpt>
      <trkpt lat="45.73026" lon="-1.05882">
        <ele>5.035156</ele>
        <time>2013-05-29T14:59:14Z</time>
      </trkpt>
      <trkpt lat="45.73017" lon="-1.05888">
        <ele>5.148438</ele>
        <time>2013-05-29T14:59:24Z</time>
      </trkpt>
      <trkpt lat="45.73007" lon="-1.05893">
        <ele>5.234375</ele>
        <time>2013-05-29T14:59:32Z</time>
      </trkpt>
      <trkpt lat="45.72998" lon="-1.05898">
        <ele>5.332031</ele>
        <time>2013-05-29T14:59:40Z</time>
      </trkpt>
      <trkpt lat="45.72988" lon="-1.05903">
        <ele>5.382812</ele>
        <time>2013-05-29T14:59:50Z</time>
      </trkpt>
      <trkpt lat="45.72979" lon="-1.05908">
        <ele>5.394531</ele>
        <time>2013-05-29T15:00:00Z</time>
      </trkpt>
      <trkpt lat="45.72971" lon="-1.05916">
        <ele>5.410156</ele>
        <time>2013-05-29T15:00:09Z</time>
      </trkpt>
      <trkpt lat="45.72963" lon="-1.05922">
        <ele>5.363281</ele>
        <time>2013-05-29T15:00:17Z</time>
      </trkpt>
      <trkpt lat="45.72954" lon="-1.05928">
        <ele>5.273438</ele>
        <time>2013-05-29T15:00:25Z</time>
      </trkpt>
      <trkpt lat="45.72945" lon="-1.05934">
        <ele>5.167969</ele>
        <time>2013-05-29T15:00:33Z</time>
      </trkpt>
      <trkpt lat="45.72938" lon="-1.05941">
        <ele>5.03125</ele>
        <time>2013-05-29T15:00:41Z</time>
      </trkpt>
      <trkpt lat="45.72929" lon="-1.0595">
        <ele>5</ele>
        <time>2013-05-29T15:00:51Z</time>
      </trkpt>
      <trkpt lat="45.72919" lon="-1.0596">
        <ele>5</ele>
        <time>2013-05-29T15:00:59Z</time>
      </trkpt>
      <trkpt lat="45.72913" lon="-1.05969">
        <ele>5</ele>
        <time>2013-05-29T15:01:07Z</time>
      </trkpt>
      <trkpt lat="45.72906" lon="-1.05977">
        <ele>5</ele>
        <time>2013-05-29T15:01:15Z</time>
      </trkpt>
      <trkpt lat="45.72896" lon="-1.05981">
        <ele>5</ele>
        <time>2013-05-29T15:01:24Z</time>
      </trkpt>
      <trkpt lat="45.72887" lon="-1.05979">
        <ele>5</ele>
        <time>2013-05-29T15:01:32Z</time>
      </trkpt>
      <trkpt lat="45.72878" lon="-1.05973">
        <ele>5</ele>
        <time>2013-05-29T15:01:39Z</time>
      </trkpt>
      <trkpt lat="45.7287" lon="-1.05966">
        <ele>5</ele>
        <time>2013-05-29T15:01:45Z</time>
      </trkpt>
      <trkpt lat="45.72863" lon="-1.05959">
        <ele>5</ele>
        <time>2013-05-29T15:01:54Z</time>
      </trkpt>
      <trkpt lat="45.72855" lon="-1.0595">
        <ele>5</ele>
        <time>2013-05-29T15:02:02Z</time>
      </trkpt>
      <trkpt lat="45.72847" lon="-1.0594">
        <ele>5</ele>
        <time>2013-05-29T15:02:11Z</time>
      </trkpt>
      <trkpt lat="45.7284" lon="-1.05932">
        <ele>4.929688</ele>
        <time>2013-05-29T15:02:19Z</time>
      </trkpt>
      <trkpt lat="45.72833" lon="-1.05921">
        <ele>4.746094</ele>
        <time>2013-05-29T15:02:28Z</time>
      </trkpt>
      <trkpt lat="45.72826" lon="-1.0591">
        <ele>4.542969</ele>
        <time>2013-05-29T15:02:35Z</time>
      </trkpt>
      <trkpt lat="45.7282" lon="-1.05902">
        <ele>4.488281</ele>
        <time>2013-05-29T15:02:42Z</time>
      </trkpt>
      <trkpt lat="45.72815" lon="-1.05892">
        <ele>4.398438</ele>
        <time>2013-05-29T15:02:49Z</time>
      </trkpt>
      <trkpt lat="45.72809" lon="-1.05884">
        <ele>4.351562</ele>
        <time>2013-05-29T15:02:57Z</time>
      </trkpt>
      <trkpt lat="45.72804" lon="-1.05873">
        <ele>4.335938</ele>
        <time>2013-05-29T15:03:05Z</time>
      </trkpt>
      <trkpt lat="45.72797" lon="-1.05865">
        <ele>4.363281</ele>
        <time>2013-05-29T15:03:14Z</time>
      </trkpt>
      <trkpt lat="45.7279" lon="-1.05858">
        <ele>4.375</ele>
        <time>2013-05-29T15:03:22Z</time>
      </trkpt>
      <trkpt lat="45.72782" lon="-1.0585">
        <ele>4.347656</ele>
        <time>2013-05-29T15:03:30Z</time>
      </trkpt>
      <trkpt lat="45.72773" lon="-1.05843">
        <ele>4.320312</ele>
        <time>2013-05-29T15:03:38Z</time>
      </trkpt>
      <trkpt lat="45.72763" lon="-1.0584">
        <ele>4.273438</ele>
        <time>2013-05-29T15:03:46Z</time>
      </trkpt>
      <trkpt lat="45.72754" lon="-1.05836">
        <ele>4.203125</ele>
        <time>2013-05-29T15:03:54Z</time>
      </trkpt>
      <trkpt lat="45.72746" lon="-1.05833">
        <ele>4.15625</ele>
        <time>2013-05-29T15:04:02Z</time>
      </trkpt>
      <trkpt lat="45.72736" lon="-1.05831">
        <ele>4.125</ele>
        <time>2013-05-29T15:04:11Z</time>
      </trkpt>
      <trkpt lat="45.72725" lon="-1.05829">
        <ele>4.078125</ele>
        <time>2013-05-29T15:04:21Z</time>
      </trkpt>
      <trkpt lat="45.72715" lon="-1.05826">
        <ele>4.035156</ele>
        <time>2013-05-29T15:04:30Z</time>
      </trkpt>
      <trkpt lat="45.72706" lon="-1.05824">
        <ele>4.144531</ele>
        <time>2013-05-29T15:04:39Z</time>
      </trkpt>
      <trkpt lat="45.72696" lon="-1.05821">
        <ele>4.300781</ele>
        <time>2013-05-29T15:04:48Z</time>
      </trkpt>
      <trkpt lat="45.72685" lon="-1.05823">
        <ele>4.507812</ele>
        <time>2013-05-29T15:04:56Z</time>
      </trkpt>
      <trkpt lat="45.72673" lon="-1.05826">
        <ele>4.765625</ele>
        <time>2013-05-29T15:05:05Z</time>
      </trkpt>
      <trkpt lat="45.72662" lon="-1.05826">
        <ele>4.960938</ele>
        <time>2013-05-29T15:05:16Z</time>
      </trkpt>
      <trkpt lat="45.72651" lon="-1.05826">
        <ele>5.160156</ele>
        <time>2013-05-29T15:05:25Z</time>
      </trkpt>
      <trkpt lat="45.72639" lon="-1.05826">
        <ele>5.378906</ele>
        <time>2013-05-29T15:05:34Z</time>
      </trkpt>
      <trkpt lat="45.72629" lon="-1.05827">
        <ele>5.578125</ele>
        <time>2013-05-29T15:05:42Z</time>
      </trkpt>
      <trkpt lat="45.7262" lon="-1.05825">
        <ele>5.699219</ele>
        <time>2013-05-29T15:05:51Z</time>
      </trkpt>
      <trkpt lat="45.72611" lon="-1.05823">
        <ele>5.835938</ele>
        <time>2013-05-29T15:06:00Z</time>
      </trkpt>
      <trkpt lat="45.72602" lon="-1.05821">
        <ele>5.941406</ele>
        <time>2013-05-29T15:06:07Z</time>
      </trkpt>
      <trkpt lat="45.72593" lon="-1.05818">
        <ele>5.886719</ele>
        <time>2013-05-29T15:06:14Z</time>
      </trkpt>
      <trkpt lat="45.72583" lon="-1.05816">
        <ele>5.847656</ele>
        <time>2013-05-29T15:06:22Z</time>
      </trkpt>
      <trkpt lat="45.72575" lon="-1.05814">
        <ele>5.816406</ele>
        <time>2013-05-29T15:06:31Z</time>
      </trkpt>
      <trkpt lat="45.72564" lon="-1.05816">
        <ele>5.855469</ele>
        <time>2013-05-29T15:06:40Z</time>
      </trkpt>
      <trkpt lat="45.72552" lon="-1.05819">
        <ele>5.894531</ele>
        <time>2013-05-29T15:06:49Z</time>
      </trkpt>
      <trkpt lat="45.72541" lon="-1.05822">
        <ele>5.84375</ele>
        <time>2013-05-29T15:07:00Z</time>
      </trkpt>
      <trkpt lat="45.72529" lon="-1.05824">
        <ele>5.664062</ele>
        <time>2013-05-29T15:07:10Z</time>
      </trkpt>
      <trkpt lat="45.72516" lon="-1.05828">
        <ele>5.503906</ele>
        <time>2013-05-29T15:07:19Z</time>
      </trkpt>
      <trkpt lat="45.72506" lon="-1.0583">
        <ele>5.347656</ele>
        <time>2013-05-29T15:07:27Z</time>
      </trkpt>
      <trkpt lat="45.72495" lon="-1.05831">
        <ele>5.179688</ele>
        <time>2013-05-29T15:07:35Z</time>
      </trkpt>
      <trkpt lat="45.72486" lon="-1.05833">
        <ele>5.148438</ele>
        <time>2013-05-29T15:07:44Z</time>
      </trkpt>
      <trkpt lat="45.72475" lon="-1.05835">
        <ele>5.183594</ele>
        <time>2013-05-29T15:07:53Z</time>
      </trkpt>
      <trkpt lat="45.72467" lon="-1.05836">
        <ele>5.207031</ele>
        <time>2013-05-29T15:08:00Z</time>
      </trkpt>
      <trkpt lat="45.72458" lon="-1.05836">
        <ele>5.214844</ele>
        <time>2013-05-29T15:08:07Z</time>
      </trkpt>
      <trkpt lat="45.72447" lon="-1.05838">
        <ele>5.238281</ele>
        <time>2013-05-29T15:08:15Z</time>
      </trkpt>
      <trkpt lat="45.72437" lon="-1.0584">
        <ele>5.273438</ele>
        <time>2013-05-29T15:08:24Z</time>
      </trkpt>
      <trkpt lat="45.72425" lon="-1.05842">
        <ele>5.253906</ele>
        <time>2013-05-29T15:08:35Z</time>
      </trkpt>
      <trkpt lat="45.72413" lon="-1.05845">
        <ele>5.214844</ele>
        <time>2013-05-29T15:08:44Z</time>
      </trkpt>
      <trkpt lat="45.72402" lon="-1.05847">
        <ele>5.148438</ele>
        <time>2013-05-29T15:08:54Z</time>
      </trkpt>
      <trkpt lat="45.72392" lon="-1.05848">
        <ele>5.082031</ele>
        <time>2013-05-29T15:09:02Z</time>
      </trkpt>
      <trkpt lat="45.72382" lon="-1.0585">
        <ele>5.011719</ele>
        <time>2013-05-29T15:09:10Z</time>
      </trkpt>
      <trkpt lat="45.72379" lon="-1.05849">
        <ele>4.980469</ele>
      </trkpt>
      <trkpt lat="45.72362" lon="-1.05834">
        <ele>4.972656</ele>
      </trkpt>
      <trkpt lat="45.72322" lon="-1.05794">
        <ele>4</ele>
      </trkpt>
      <trkpt lat="45.72298" lon="-1.05748">
        <ele>4</ele>
      </trkpt>
      <trkpt lat="45.7228" lon="-1.05731">
        <ele>4</ele>
      </trkpt>
      <trkpt lat="45.72249" lon="-1.05731">
        <ele>4.375</ele>
      </trkpt>
      <trkpt lat="45.72216" lon="-1.05738">
        <ele>4.972656</ele>
      </trkpt>
      <trkpt lat="45.72205" lon="-1.0574">
        <ele>5.15625</ele>
      </trkpt>
      <trkpt lat="45.72166" lon="-1.05623">
        <ele>5.460938</ele>
      </trkpt>
      <trkpt lat="45.72155" lon="-1.05608">
        <ele>5.816406</ele>
      </trkpt>
      <trkpt lat="45.72144" lon="-1.05612">
        <ele>5.171875</ele>
      </trkpt>
      <trkpt lat="45.72099" lon="-1.05623">
        <ele>5.371094</ele>
      </trkpt>
      <trkpt lat="45.72099" lon="-1.05644">
        <ele>5.742188</ele>
      </trkpt>
      <trkpt lat="45.72093" lon="-1.05702">
        <ele>6.144531</ele>
      </trkpt>
      <trkpt lat="45.72092" lon="-1.0574">
        <ele>6.582031</ele>
      </trkpt>
      <trkpt lat="45.72096" lon="-1.05796">
        <ele>6.578125</ele>
      </trkpt>
      <trkpt lat="45.7211" lon="-1.05866">
        <ele>5.277344</ele>
      </trkpt>
      <trkpt lat="45.72129" lon="-1.05908">
        <ele>5.527344</ele>
      </trkpt>
      <trkpt lat="45.72167" lon="-1.0599">
        <ele>4.859375</ele>
      </trkpt>
      <trkpt lat="45.72169" lon="-1.06">
        <ele>4.820312</ele>
      </trkpt>
      <trkpt lat="45.72169" lon="-1.06017">
        <ele>4.816406</ele>
      </trkpt>
      <trkpt lat="45.72151" lon="-1.06047">
        <ele>5</ele>
      </trkpt>
      <trkpt lat="45.72132" lon="-1.06079">
        <ele>5</ele>
      </trkpt>
      <trkpt lat="45.72129" lon="-1.06095">
        <ele>5</ele>
      </trkpt>
      <trkpt lat="45.72142" lon="-1.06099">
        <ele>5</ele>
      </trkpt>
      <trkpt lat="45.72129" lon="-1.06131">
        <ele>5</ele>
      </trkpt>
      <trkpt lat="45.72106" lon="-1.06182">
        <ele>5.4375</ele>
      </trkpt>
      <trkpt lat="45.72091" lon="-1.06216">
        <ele>6.011719</ele>
      </trkpt>
      <trkpt lat="45.72082" lon="-1.06233">
        <ele>6.140625</ele>
      </trkpt>
      <trkpt lat="45.72069" lon="-1.06255">
        <ele>6.472656</ele>
      </trkpt>
      <trkpt lat="45.72061" lon="-1.06266">
        <ele>6.714844</ele>
      </trkpt>
      <trkpt lat="45.72054" lon="-1.0627">
        <ele>6.886719</ele>
      </trkpt>
      <trkpt lat="45.72033" lon="-1.06276">
        <ele>7</ele>
      </trkpt>
      <trkpt lat="45.72024" lon="-1.06283">
        <ele>7</ele>
      </trkpt>
      <trkpt lat="45.72018" lon="-1.06288">
        <ele>7</ele>
      </trkpt>
      <trkpt lat="45.72009" lon="-1.06296">
        <ele>7</ele>
      </trkpt>
      <trkpt lat="45.71999" lon="-1.06309">
        <ele>7</ele>
      </trkpt>
      <trkpt lat="45.71966" lon="-1.06344">
        <ele>7.523438</ele>
      </trkpt>
      <trkpt lat="45.71965" lon="-1.06346">
        <ele>7.589844</ele>
      </trkpt>
      <trkpt lat="45.71957" lon="-1.06371">
        <ele>8.386719</ele>
      </trkpt>
      <trkpt lat="45.71951" lon="-1.06392">
        <ele>8.792969</ele>
      </trkpt>
      <trkpt lat="45.71951" lon="-1.06415">
        <ele>8.902344</ele>
      </trkpt>
      <trkpt lat="45.71955" lon="-1.06453">
        <ele>9</ele>
      </trkpt>
      <trkpt lat="45.71947" lon="-1.06462">
        <ele>9</ele>
      </trkpt>
      <trkpt lat="45.71939" lon="-1.06466">
        <ele>9</ele>
      </trkpt>
      <trkpt lat="45.71939" lon="-1.06469">
        <ele>9</ele>
      </trkpt>
      <trkpt lat="45.71939" lon="-1.06515">
        <ele>9</ele>
      </trkpt>
      <trkpt lat="45.71959" lon="-1.06514">
        <ele>9</ele>
      </trkpt>
      <trkpt lat="45.71994" lon="-1.0652">
        <ele>9</ele>
      </trkpt>
      <trkpt lat="45.72009" lon="-1.06526">
        <ele>9</ele>
      </trkpt>
      <trkpt lat="45.72019" lon="-1.06523">
        <ele>9</ele>
      </trkpt>
      <trkpt lat="45.72069" lon="-1.06464">
        <ele>8.699219</ele>
      </trkpt>
      <trkpt lat="45.72096" lon="-1.06431">
        <ele>8.800781</ele>
      </trkpt>
      <trkpt lat="45.72129" lon="-1.06401">
        <ele>8.378906</ele>
      </trkpt>
      <trkpt lat="45.72145" lon="-1.06392">
        <ele>8.21875</ele>
      </trkpt>
      <trkpt lat="45.72159" lon="-1.06386">
        <ele>8.105469</ele>
      </trkpt>
      <trkpt lat="45.7216" lon="-1.06392">
        <ele>8.199219</ele>
      </trkpt>
      <trkpt lat="45.72158" lon="-1.06398">
        <ele>8.335938</ele>
      </trkpt>
      <trkpt lat="45.72145" lon="-1.06421">
        <ele>8.75</ele>
      </trkpt>
      <trkpt lat="45.72137" lon="-1.06446">
        <ele>9</ele>
      </trkpt>
      <trkpt lat="45.72119" lon="-1.06477">
        <ele>9</ele>
      </trkpt>
      <trkpt lat="45.72116" lon="-1.06487">
        <ele>9</ele>
      </trkpt>
      <trkpt lat="45.72118" lon="-1.06495">
        <ele>9</ele>
      </trkpt>
      <trkpt lat="45.72097" lon="-1.06532">
        <ele>9</ele>
      </trkpt>
      <trkpt lat="45.72088" lon="-1.06556">
        <ele>9</ele>
      </trkpt>
      <trkpt lat="45.72099" lon="-1.0659">
        <ele>9</ele>
      </trkpt>
      <trkpt lat="45.72102" lon="-1.06597">
        <ele>9</ele>
      </trkpt>
      <trkpt lat="45.7209" lon="-1.06616">
        <ele>9</ele>
      </trkpt>
      <trkpt lat="45.72076" lon="-1.06646">
        <ele>9</ele>
      </trkpt>
      <trkpt lat="45.72072" lon="-1.06661">
        <ele>9</ele>
      </trkpt>
      <trkpt lat="45.72074" lon="-1.06678">
        <ele>9</ele>
      </trkpt>
      <trkpt lat="45.72082" lon="-1.06702">
        <ele>9</ele>
      </trkpt>
      <trkpt lat="45.72093" lon="-1.06726">
        <ele>9</ele>
      </trkpt>
      <trkpt lat="45.72128" lon="-1.06786">
        <ele>9</ele>
      </trkpt>
      <trkpt lat="45.72138" lon="-1.06816">
        <ele>9</ele>
      </trkpt>
      <trkpt lat="45.72142" lon="-1.06831">
        <ele>9</ele>
      </trkpt>
      <trkpt lat="45.72135" lon="-1.06856">
        <ele>9</ele>
      </trkpt>
      <trkpt lat="45.72122" lon="-1.06893">
        <ele>9</ele>
      </trkpt>
      <trkpt lat="45.72118" lon="-1.06904">
        <ele>9</ele>
      </trkpt>
      <trkpt lat="45.72115" lon="-1.06935">
        <ele>9</ele>
      </trkpt>
      <trkpt lat="45.72117" lon="-1.06993">
        <ele>9</ele>
      </trkpt>
      <trkpt lat="45.7212" lon="-1.07011">
        <ele>9</ele>
      </trkpt>
      <trkpt lat="45.72139" lon="-1.06996">
        <ele>9</ele>
      </trkpt>
      <trkpt lat="45.7218" lon="-1.06974">
        <ele>9.78125</ele>
      </trkpt>
      <trkpt lat="45.72224" lon="-1.06965">
        <ele>11.351562</ele>
      </trkpt>
      <trkpt lat="45.72239" lon="-1.06959">
        <ele>11.894531</ele>
      </trkpt>
      <trkpt lat="45.72254" lon="-1.06948">
        <ele>12.421875</ele>
      </trkpt>
      <trkpt lat="45.7232" lon="-1.06893">
        <ele>13.160156</ele>
      </trkpt>
      <trkpt lat="45.72359" lon="-1.06859">
        <ele>12.625</ele>
      </trkpt>
      <trkpt lat="45.72379" lon="-1.06846">
        <ele>12.40625</ele>
      </trkpt>
      <trkpt lat="45.724" lon="-1.06838">
        <ele>11.90625</ele>
      </trkpt>
      <trkpt lat="45.72419" lon="-1.0682">
        <ele>11.234375</ele>
      </trkpt>
      <trkpt lat="45.72447" lon="-1.06772">
        <ele>10.066406</ele>
      </trkpt>
      <trkpt lat="45.72498" lon="-1.06668">
        <ele>10.953125</ele>
      </trkpt>
      <trkpt lat="45.72548" lon="-1.06564">
        <ele>12</ele>
        <time>2013-05-29T15:24:36Z</time>
      </trkpt>
      <trkpt lat="45.72562" lon="-1.06539">
        <ele>12</ele>
        <time>2013-05-29T15:26:18Z</time>
      </trkpt>
      <trkpt lat="45.72567" lon="-1.06527">
        <ele>12</ele>
        <time>2013-05-29T15:26:26Z</time>
      </trkpt>
      <trkpt lat="45.72574" lon="-1.06516">
        <ele>12</ele>
        <time>2013-05-29T15:26:34Z</time>
      </trkpt>
      <trkpt lat="45.7258" lon="-1.06504">
        <ele>12</ele>
        <time>2013-05-29T15:26:42Z</time>
      </trkpt>
      <trkpt lat="45.72586" lon="-1.06494">
        <ele>12</ele>
        <time>2013-05-29T15:26:49Z</time>
      </trkpt>
      <trkpt lat="45.72591" lon="-1.06484">
        <ele>12.027344</ele>
        <time>2013-05-29T15:26:56Z</time>
      </trkpt>
      <trkpt lat="45.72596" lon="-1.06473">
        <ele>12.039062</ele>
        <time>2013-05-29T15:27:04Z</time>
      </trkpt>
      <trkpt lat="45.72602" lon="-1.06462">
        <ele>12.003906</ele>
        <time>2013-05-29T15:27:12Z</time>
      </trkpt>
      <trkpt lat="45.7261" lon="-1.06453">
        <ele>11.777344</ele>
        <time>2013-05-29T15:27:20Z</time>
      </trkpt>
      <trkpt lat="45.72617" lon="-1.06447">
        <ele>11.539062</ele>
        <time>2013-05-29T15:27:27Z</time>
      </trkpt>
      <trkpt lat="45.72626" lon="-1.06452">
        <ele>11.28125</ele>
        <time>2013-05-29T15:27:35Z</time>
      </trkpt>
      <trkpt lat="45.72633" lon="-1.0646">
        <ele>11.148438</ele>
        <time>2013-05-29T15:27:42Z</time>
      </trkpt>
      <trkpt lat="45.72642" lon="-1.06469">
        <ele>11.027344</ele>
        <time>2013-05-29T15:27:50Z</time>
      </trkpt>
      <trkpt lat="45.72649" lon="-1.06477">
        <ele>10.964844</ele>
        <time>2013-05-29T15:27:58Z</time>
      </trkpt>
      <trkpt lat="45.72654" lon="-1.06486">
        <ele>10.988281</ele>
        <time>2013-05-29T15:28:05Z</time>
      </trkpt>
      <trkpt lat="45.72661" lon="-1.06494">
        <ele>11</ele>
        <time>2013-05-29T15:28:11Z</time>
      </trkpt>
      <trkpt lat="45.72669" lon="-1.06502">
        <ele>11</ele>
        <time>2013-05-29T15:28:18Z</time>
      </trkpt>
      <trkpt lat="45.72675" lon="-1.06511">
        <ele>11</ele>
        <time>2013-05-29T15:28:25Z</time>
      </trkpt>
      <trkpt lat="45.72683" lon="-1.06519">
        <ele>11</ele>
        <time>2013-05-29T15:28:32Z</time>
      </trkpt>
      <trkpt lat="45.7269" lon="-1.06527">
        <ele>11</ele>
        <time>2013-05-29T15:28:39Z</time>
      </trkpt>
      <trkpt lat="45.72697" lon="-1.06535">
        <ele>11</ele>
        <time>2013-05-29T15:28:45Z</time>
      </trkpt>
      <trkpt lat="45.72704" lon="-1.06543">
        <ele>11</ele>
        <time>2013-05-29T15:28:52Z</time>
      </trkpt>
      <trkpt lat="45.7271" lon="-1.0655">
        <ele>11.066406</ele>
        <time>2013-05-29T15:28:59Z</time>
      </trkpt>
      <trkpt lat="45.72719" lon="-1.06559">
        <ele>11.320312</ele>
        <time>2013-05-29T15:29:07Z</time>
      </trkpt>
      <trkpt lat="45.72727" lon="-1.06567">
        <ele>11.609375</ele>
        <time>2013-05-29T15:29:14Z</time>
      </trkpt>
      <trkpt lat="45.72735" lon="-1.06575">
        <ele>11.90625</ele>
        <time>2013-05-29T15:29:21Z</time>
      </trkpt>
      <trkpt lat="45.72743" lon="-1.06584">
        <ele>12.199219</ele>
        <time>2013-05-29T15:29:29Z</time>
      </trkpt>
      <trkpt lat="45.7275" lon="-1.06594">
        <ele>12.503906</ele>
        <time>2013-05-29T15:29:37Z</time>
      </trkpt>
      <trkpt lat="45.72758" lon="-1.06601">
        <ele>12.777344</ele>
        <time>2013-05-29T15:29:43Z</time>
      </trkpt>
      <trkpt lat="45.72764" lon="-1.06609">
        <ele>13.152344</ele>
        <time>2013-05-29T15:29:50Z</time>
      </trkpt>
      <trkpt lat="45.72771" lon="-1.06618">
        <ele>13.59375</ele>
        <time>2013-05-29T15:29:58Z</time>
      </trkpt>
      <trkpt lat="45.72779" lon="-1.06626">
        <ele>13.972656</ele>
        <time>2013-05-29T15:30:05Z</time>
      </trkpt>
      <trkpt lat="45.72786" lon="-1.06635">
        <ele>14.324219</ele>
        <time>2013-05-29T15:30:13Z</time>
      </trkpt>
      <trkpt lat="45.72793" lon="-1.06644">
        <ele>14.613281</ele>
        <time>2013-05-29T15:30:20Z</time>
      </trkpt>
      <trkpt lat="45.72801" lon="-1.06653">
        <ele>14.898438</ele>
        <time>2013-05-29T15:30:28Z</time>
      </trkpt>
      <trkpt lat="45.72808" lon="-1.06662">
        <ele>15.066406</ele>
        <time>2013-05-29T15:30:36Z</time>
      </trkpt>
      <trkpt lat="45.72816" lon="-1.06671">
        <ele>15.214844</ele>
        <time>2013-05-29T15:30:44Z</time>
      </trkpt>
      <trkpt lat="45.72824" lon="-1.0668">
        <ele>15.410156</ele>
        <time>2013-05-29T15:30:52Z</time>
      </trkpt>
      <trkpt lat="45.72833" lon="-1.06689">
        <ele>15.578125</ele>
        <time>2013-05-29T15:31:00Z</time>
      </trkpt>
      <trkpt lat="45.7284" lon="-1.06697">
        <ele>15.722656</ele>
        <time>2013-05-29T15:31:07Z</time>
      </trkpt>
      <trkpt lat="45.72848" lon="-1.06706">
        <ele>15.878906</ele>
        <time>2013-05-29T15:31:14Z</time>
      </trkpt>
      <trkpt lat="45.72857" lon="-1.06715">
        <ele>16.042969</ele>
        <time>2013-05-29T15:31:22Z</time>
      </trkpt>
      <trkpt lat="45.72866" lon="-1.06725">
        <ele>16.210938</ele>
        <time>2013-05-29T15:31:30Z</time>
      </trkpt>
      <trkpt lat="45.72873" lon="-1.06734">
        <ele>16.375</ele>
        <time>2013-05-29T15:31:38Z</time>
      </trkpt>
      <trkpt lat="45.7288" lon="-1.06742">
        <ele>16.527344</ele>
        <time>2013-05-29T15:31:46Z</time>
      </trkpt>
      <trkpt lat="45.72889" lon="-1.06753">
        <ele>16.570312</ele>
        <time>2013-05-29T15:31:54Z</time>
      </trkpt>
      <trkpt lat="45.72896" lon="-1.06762">
        <ele>16.617188</ele>
        <time>2013-05-29T15:32:01Z</time>
      </trkpt>
      <trkpt lat="45.72904" lon="-1.06771">
        <ele>16.652344</ele>
        <time>2013-05-29T15:32:09Z</time>
      </trkpt>
      <trkpt lat="45.72912" lon="-1.06779">
        <ele>16.710938</ele>
        <time>2013-05-29T15:32:16Z</time>
      </trkpt>
      <trkpt lat="45.72919" lon="-1.06788">
        <ele>16.757812</ele>
        <time>2013-05-29T15:32:23Z</time>
      </trkpt>
      <trkpt lat="45.72927" lon="-1.06795">
        <ele>16.738281</ele>
        <time>2013-05-29T15:32:31Z</time>
      </trkpt>
      <trkpt lat="45.72935" lon="-1.06803">
        <ele>16.667969</ele>
        <time>2013-05-29T15:32:39Z</time>
      </trkpt>
      <trkpt lat="45.72942" lon="-1.06812">
        <ele>16.570312</ele>
        <time>2013-05-29T15:32:47Z</time>
      </trkpt>
      <trkpt lat="45.72951" lon="-1.06822">
        <ele>16.425781</ele>
        <time>2013-05-29T15:32:55Z</time>
      </trkpt>
      <trkpt lat="45.72959" lon="-1.06833">
        <ele>16.339844</ele>
        <time>2013-05-29T15:33:03Z</time>
      </trkpt>
      <trkpt lat="45.72967" lon="-1.06842">
        <ele>16.230469</ele>
        <time>2013-05-29T15:33:10Z</time>
      </trkpt>
      <trkpt lat="45.72976" lon="-1.06851">
        <ele>16.058594</ele>
        <time>2013-05-29T15:33:18Z</time>
      </trkpt>
      <trkpt lat="45.72983" lon="-1.06861">
        <ele>15.96875</ele>
        <time>2013-05-29T15:33:26Z</time>
      </trkpt>
      <trkpt lat="45.7299" lon="-1.06872">
        <ele>15.910156</ele>
        <time>2013-05-29T15:33:34Z</time>
      </trkpt>
      <trkpt lat="45.72998" lon="-1.06883">
        <ele>15.738281</ele>
        <time>2013-05-29T15:33:42Z</time>
      </trkpt>
      <trkpt lat="45.73005" lon="-1.06894">
        <ele>15.511719</ele>
        <time>2013-05-29T15:33:50Z</time>
      </trkpt>
      <trkpt lat="45.73012" lon="-1.06905">
        <ele>15.351562</ele>
        <time>2013-05-29T15:33:57Z</time>
      </trkpt>
      <trkpt lat="45.73019" lon="-1.06914">
        <ele>15.152344</ele>
        <time>2013-05-29T15:34:04Z</time>
      </trkpt>
      <trkpt lat="45.73026" lon="-1.06925">
        <ele>14.988281</ele>
        <time>2013-05-29T15:34:12Z</time>
      </trkpt>
      <trkpt lat="45.73032" lon="-1.06937">
        <ele>14.863281</ele>
        <time>2013-05-29T15:34:20Z</time>
      </trkpt>
      <trkpt lat="45.73039" lon="-1.06949">
        <ele>14.691406</ele>
        <time>2013-05-29T15:34:28Z</time>
      </trkpt>
      <trkpt lat="45.73044" lon="-1.06961">
        <ele>14.625</ele>
        <time>2013-05-29T15:34:35Z</time>
      </trkpt>
      <trkpt lat="45.73045" lon="-1.06976">
        <ele>14.832031</ele>
        <time>2013-05-29T15:34:42Z</time>
      </trkpt>
      <trkpt lat="45.73046" lon="-1.06989">
        <ele>15.03125</ele>
        <time>2013-05-29T15:34:49Z</time>
      </trkpt>
      <trkpt lat="45.73046" lon="-1.07001">
        <ele>15.421875</ele>
        <time>2013-05-29T15:34:56Z</time>
      </trkpt>
      <trkpt lat="45.73046" lon="-1.07015">
        <ele>15.910156</ele>
        <time>2013-05-29T15:35:04Z</time>
      </trkpt>
      <trkpt lat="45.73045" lon="-1.07028">
        <ele>16.4375</ele>
        <time>2013-05-29T15:35:12Z</time>
      </trkpt>
      <trkpt lat="45.73045" lon="-1.07041">
        <ele>16.90625</ele>
        <time>2013-05-29T15:35:19Z</time>
      </trkpt>
      <trkpt lat="45.73046" lon="-1.07054">
        <ele>17.171875</ele>
        <time>2013-05-29T15:35:26Z</time>
      </trkpt>
      <trkpt lat="45.73054" lon="-1.0706">
        <ele>16.753906</ele>
        <time>2013-05-29T15:35:34Z</time>
      </trkpt>
      <trkpt lat="45.73062" lon="-1.0705">
        <ele>15.972656</ele>
        <time>2013-05-29T15:35:44Z</time>
      </trkpt>
      <trkpt lat="45.7307" lon="-1.07037">
        <ele>15.175781</ele>
        <time>2013-05-29T15:35:53Z</time>
      </trkpt>
      <trkpt lat="45.73076" lon="-1.07027">
        <ele>14.570312</ele>
        <time>2013-05-29T15:36:00Z</time>
      </trkpt>
      <trkpt lat="45.73083" lon="-1.07016">
        <ele>14.019531</ele>
        <time>2013-05-29T15:36:08Z</time>
      </trkpt>
      <trkpt lat="45.7309" lon="-1.07008">
        <ele>13.570312</ele>
        <time>2013-05-29T15:36:15Z</time>
      </trkpt>
      <trkpt lat="45.73096" lon="-1.06996">
        <ele>13.25</ele>
        <time>2013-05-29T15:36:23Z</time>
      </trkpt>
      <trkpt lat="45.73102" lon="-1.06986">
        <ele>13.011719</ele>
        <time>2013-05-29T15:36:30Z</time>
      </trkpt>
      <trkpt lat="45.73108" lon="-1.06977">
        <ele>12.808594</ele>
        <time>2013-05-29T15:36:38Z</time>
      </trkpt>
      <trkpt lat="45.73116" lon="-1.06968">
        <ele>12.515625</ele>
        <time>2013-05-29T15:36:47Z</time>
      </trkpt>
      <trkpt lat="45.73123" lon="-1.06956">
        <ele>12.265625</ele>
        <time>2013-05-29T15:36:58Z</time>
      </trkpt>
      <trkpt lat="45.73131" lon="-1.06947">
        <ele>11.972656</ele>
        <time>2013-05-29T15:37:06Z</time>
      </trkpt>
      <trkpt lat="45.7314" lon="-1.06939">
        <ele>11.65625</ele>
        <time>2013-05-29T15:37:14Z</time>
      </trkpt>
      <trkpt lat="45.73147" lon="-1.06932">
        <ele>11.328125</ele>
        <time>2013-05-29T15:37:22Z</time>
      </trkpt>
      <trkpt lat="45.73152" lon="-1.06922">
        <ele>10.980469</ele>
        <time>2013-05-29T15:37:34Z</time>
      </trkpt>
      <trkpt lat="45.73157" lon="-1.06909">
        <ele>10.574219</ele>
        <time>2013-05-29T15:37:46Z</time>
      </trkpt>
    </trkseg>
  </trk>
</gpx>